Eltham High School

Historical Weather Data

                  Temp     Hi    Low   Out         Wind        Wind    Hi    Hi   Wind   Heat          THSW                Rain  Solar   Solar Hi Solar         UV    Hi     Heat    Cool    In     In          Wind  Wind    ISS   Arc.
  Date    Time     Out   Temp   Temp   Hum    Dew Speed   Dir   Run Speed   Dir  Chill  Index    THW  Index   Bar    Rain  Rate   Rad.  Energy    Rad.    UV   Dose   UV     D-D     D-D    Temp   Hum     ET   Samp   Tx   Recept  Int.
------------------------------------------------------------------------------------------------------------------------------------------------------------------------------------------------------------------------------------------
16/09/20 12:30a    5.8    6.1    5.8    93    4.7   0.0   ---  0.00   0.0   ---    5.8    5.8    5.8    3.8  1036.9  0.00   0.0     0     0.00      0     0.0  0.00   0.0   0.262   0.000   23.3    36    0.00   699    1    100.0   30 
16/09/20  1:00a    5.4    5.8    5.4    93    4.4   0.0   ---  0.00   0.0   ---    5.4    5.5    5.5    3.4  1036.6  0.00   0.0     0     0.00      0     0.0  0.00   0.0   0.269   0.000   23.1    36    0.00   702    1    100.0   30 
16/09/20  1:30a    5.0    5.4    5.0    93    4.0   0.0   ---  0.00   0.0   ---    5.0    5.0    5.0    2.9  1036.1  0.00   0.0     0     0.00      0     0.0  0.00   0.0   0.278   0.000   23.1    36    0.00   695    1    100.0   30 
16/09/20  2:00a    4.6    5.0    4.6    94    3.7   0.0   ---  0.00   0.0   ---    4.6    4.6    4.6    2.6  1035.7  0.25   0.0     0     0.00      0     0.0  0.00   0.0   0.287   0.000   22.8    36    0.00   699    1    100.0   30 
16/09/20  2:30a    4.3    4.6    4.3    94    3.5   0.0   ---  0.00   0.0   ---    4.3    4.3    4.3    2.3  1035.1  0.00   0.0     0     0.00      0     0.0  0.00   0.0   0.292   0.000   22.8    36    0.00   702    1    100.0   30 
16/09/20  3:00a    3.9    4.3    3.9    94    3.1   0.0   ---  0.00   0.0   ---    3.9    3.9    3.9    1.8  1034.5  0.00   0.0     0     0.00      0     0.0  0.00   0.0   0.300   0.000   22.6    36    0.00   701    1    100.0   30 
16/09/20  3:30a    3.6    3.9    3.6    94    2.7   0.0   ---  0.00   0.0   ---    3.6    3.6    3.6    1.5  1034.5  0.00   0.0     0     0.00      0     0.0  0.00   0.0   0.307   0.000   22.4    36    0.00   702    1    100.0   30 
16/09/20  4:00a    3.6    3.6    3.5    95    2.9   0.0   ---  0.00   0.0   ---    3.6    3.6    3.6    1.5  1034.5  0.00   0.0     0     0.00      0     0.0  0.00   0.0   0.307   0.000   22.3    35    0.00   702    1    100.0   30 
16/09/20  4:30a    3.5    3.7    3.5    95    2.8   0.0   ---  0.00   0.0   ---    3.5    3.5    3.5    1.4  1034.4  0.00   0.0     0     0.00      0     0.0  0.00   0.0   0.309   0.000   22.2    35    0.00   699    1    100.0   30 
16/09/20  5:00a    3.6    3.6    3.4    95    2.8   0.0   ---  0.00   0.0   ---    3.6    3.6    3.6    1.4  1034.2  0.00   0.0     0     0.00      0     0.0  0.00   0.0   0.308   0.000   22.0    35    0.00   702    1    100.0   30 
16/09/20  5:30a    3.4    3.6    3.4    95    2.7   0.0   ---  0.00   0.0   ---    3.4    3.4    3.4    1.3  1034.1  0.00   0.0     0     0.00      0     0.0  0.00   0.0   0.310   0.000   21.9    35    0.00   701    1    100.0   30 
16/09/20  6:00a    3.3    3.5    3.3    95    2.6   0.0   ---  0.00   0.0   ---    3.3    3.3    3.3    1.2  1034.1  0.00   0.0     0     0.00      0     0.0  0.00   0.0   0.314   0.000   21.8    35    0.00   701    1    100.0   30 
16/09/20  6:30a    2.9    3.3    2.9    95    2.2   0.0   ---  0.00   0.0   ---    2.9    2.9    2.9    0.8  1034.1  0.00   0.0     3     0.13      9     0.0  0.00   0.0   0.321   0.000   21.6    35    0.00   701    1    100.0   30 
16/09/20  7:00a    3.2    3.2    2.8    96    2.6   0.0   ---  0.00   0.0   ---    3.2    3.2    3.2    1.4  1034.3  0.00   0.0    33     1.42     72     0.0  0.00   0.0   0.316   0.000   21.5    35    0.00   679    1     99.3   30 
16/09/20  7:30a    5.4    5.4    3.2    97    5.0   0.0   ---  0.00   0.0   ---    5.4    5.4    5.4    4.8  1034.4  0.00   0.0   116     4.99    179     0.0  0.00   0.0   0.270   0.000   21.4    35    0.00   701    1    100.0   30 
16/09/20  8:00a    7.2    7.2    5.4    97    6.8   0.0   ---  0.00   0.0   ---    7.2    7.4    7.4   11.1  1034.5  0.00   0.0   234    10.06    295     0.0  0.00   0.0   0.231   0.000   21.5    35    0.08   701    1    100.0   30 
16/09/20  8:30a    8.7    8.7    7.2    97    8.3   0.0   ---  0.00   0.0   ---    8.7    9.0    9.0   12.6  1034.4  0.00   0.0   259    11.14    338     0.2  0.04   0.6   0.200   0.000   21.6    35    0.00   703    1    100.0   30 
16/09/20  9:00a   11.4   11.4    8.7    96   10.8   0.0   ---  0.00   0.0   ---   11.4   11.6   11.6   15.9  1034.1  0.00   0.0   293    12.60    404     0.7  0.15   0.9   0.144   0.000   21.9    35    0.13   699    1    100.0   30 
16/09/20  9:30a   16.0   16.0   11.5    64    9.2   4.8   NNE  2.41  25.7    NE   16.0   15.5   15.5   18.6  1034.0  0.00   0.0   230     9.89    288     0.9  0.19   1.2   0.049   0.000   22.2    34    0.00   700    1    100.0   30 
16/09/20 10:00a   17.1   17.2   16.0    55    8.0   6.4   NNW  3.22  25.7   NNW   17.1   16.3   16.2   20.8  1033.6  0.00   0.0   368    15.83    541     1.5  0.32   1.8   0.025   0.000   22.4    34    0.18   701    1    100.0   30 
16/09/20 10:30a   18.4   18.4   17.1    51    8.1   8.0     N  4.02  22.5   WNW   18.4   17.6   17.5   23.8  1033.1  0.00   0.0   643    27.65    749     2.4  0.51   2.9   0.000   0.002   22.8    34    0.00   701    1    100.0   30 
16/09/20 11:00a   19.6   19.6   18.4    48    8.2   6.4   NNW  3.22  22.5   NNW   19.6   18.7   18.7   25.3  1032.7  0.00   0.0   717    30.84    926     3.0  0.64   3.7   0.000   0.025   23.1    34    0.43   703    1    100.0   30 
16/09/20 11:30a   19.7   19.7   19.1    46    7.8   9.7   NNE  4.83  25.7   NNW   19.7   18.7   18.6   25.1  1032.1  0.00   0.0   730    31.39    939     3.3  0.71   3.7   0.000   0.029   23.4    35    0.00   700    1    100.0   30 
16/09/20 12:00p   20.4   20.5   19.6    42    7.1   9.7     N  4.83  33.8     N   20.4   19.2   19.2   26.0  1031.7  0.00   0.0   785    33.76    884     3.7  0.79   4.0   0.000   0.044   23.8    34    0.51   701    1    100.0   30 
16/09/20 12:30p   20.2   20.4   19.9    43    7.2   9.7   NNW  4.83  27.4   NNE   20.2   19.0   19.0   24.6  1031.0  0.00   0.0   585    25.16    712     3.1  0.66   3.8   0.000   0.038   24.1    34    0.00   699    1    100.0   30 
16/09/20  1:00p   20.3   20.3   19.9    46    8.3   8.0     N  4.02  27.4   NNW   20.3   19.3   19.3   24.7  1030.5  0.00   0.0   525    22.58    838     2.7  0.58   3.8   0.000   0.041   24.4    34    0.41   681    1     99.6   30 
16/09/20  1:30p   20.7   20.8   20.3    47    8.9   8.0   NNW  4.02  25.7    NE   20.7   19.7   19.7   25.2  1030.1  0.00   0.0   607    26.10    896     2.9  0.62   3.8   0.000   0.049   24.7    34    0.00   702    1    100.0   30 
16/09/20  2:00p   21.4   21.5   20.7    46    9.3   8.0   NNW  4.02  22.5    NE   21.4   20.4   20.4   27.0  1029.7  0.00   0.0   673    28.94    819     2.9  0.62   3.2   0.000   0.065   25.0    34    0.43   702    1    100.0   30 
16/09/20  2:30p   21.7   21.7   21.3    46    9.5   6.4     N  3.22  20.9    NW   21.7   20.7   20.7   25.8  1029.5  0.00   0.0   427    18.36    564     1.9  0.41   2.3   0.000   0.069   25.2    34    0.00   702    1    100.0   30 
16/09/20  3:00p   21.7   21.9   21.7    44    8.9   6.4     N  3.22  19.3   WNW   21.7   20.6   20.6   25.7  1029.3  0.00   0.0   396    17.03    617     1.6  0.34   2.1   0.000   0.071   25.5    34    0.00   701    1    100.0   30 
16/09/20  3:30p   21.1   21.7   21.1    45    8.7   6.4   NNW  3.22  20.9     N   21.1   19.9   19.9   23.3  1029.1  0.00   0.0   237    10.19    297     0.9  0.19   1.2   0.000   0.058   25.7    34    0.30   701    1    100.0   30 
16/09/20  4:00p   21.1   21.2   21.1    46    9.0   4.8   NNW  2.41  17.7    NW   21.1   19.9   19.9   22.9  1029.4  0.00   0.0   196     8.43    251     0.5  0.11   0.8   0.000   0.057   25.8    34    0.18   699    1    100.0   30 
16/09/20  4:30p   20.8   21.2   20.8    47    9.1   4.8   NNE  2.41  17.7   NNE   20.8   19.8   19.8   22.1  1029.2  0.00   0.0   156     6.71    223     0.1  0.02   0.5   0.000   0.052   26.0    34    0.00   701    1    100.0   30 
16/09/20  5:00p   20.4   20.8   20.4    50    9.7   4.8     N  2.41  17.7     N   20.4   19.7   19.7   19.2  1029.0  0.00   0.0   100     4.30    113     0.0  0.00   0.0   0.000   0.044   26.1    34    0.13   701    1    100.0   30 
16/09/20  5:30p   19.9   20.4   19.9    52    9.8   3.2     N  1.61  12.9    NE   19.9   19.3   19.3   18.4  1028.8  0.00   0.0    68     2.92    128     0.0  0.00   0.0   0.000   0.034   26.1    34    0.00   701    1    100.0   30 
16/09/20  6:00p   19.0   19.9   19.0    54    9.5   0.0   NNE  0.00   8.0   NNE   19.0   18.3   18.3   16.8  1029.0  0.00   0.0    16     0.69     26     0.0  0.00   0.0   0.000   0.014   26.1    34    0.05   699    1    100.0   30 
16/09/20  6:30p   17.3   19.0   17.3    61    9.7   0.0   NNE  0.00  11.3   NNE   17.3   16.8   16.8   15.1  1029.3  0.00   0.0     1     0.04      7     0.0  0.00   0.0   0.021   0.000   26.1    34    0.00   698    1    100.0   30 
16/09/20  7:00p   15.3   17.3   15.3    69    9.7   0.0   ---  0.00   0.0   ---   15.3   14.9   14.9   13.2  1029.2  0.00   0.0     0     0.00      0     0.0  0.00   0.0   0.063   0.000   25.9    34    0.00   703    1    100.0   30 
16/09/20  7:30p   13.8   15.3   13.8    75    9.5   0.0   ---  0.00   0.0   ---   13.8   13.6   13.6   11.8  1029.5  0.00   0.0     0     0.00      0     0.0  0.00   0.0   0.094   0.000   25.8    34    0.00   697    1    100.0   30 
16/09/20  8:00p   12.6   13.8   12.6    80    9.2   0.0   ---  0.00   0.0   ---   12.6   12.4   12.4   10.7  1029.9  0.00   0.0     0     0.00      0     0.0  0.00   0.0   0.119   0.000   25.6    35    0.03   700    1    100.0   30 
16/09/20  8:30p   11.8   12.6   11.8    84    9.2   0.0   ---  0.00   0.0   ---   11.8   11.7   11.7   10.0  1030.1  0.00   0.0     0     0.00      0     0.0  0.00   0.0   0.137   0.000   25.4    35    0.00   698    1    100.0   30 
16/09/20  9:00p   11.2   11.8   11.2    86    8.9   0.0   ---  0.00   0.0   ---   11.2   11.2   11.2    9.4  1030.1  0.00   0.0     0     0.00      0     0.0  0.00   0.0   0.149   0.000   25.3    35    0.00   700    1    100.0   30 
16/09/20  9:30p   10.5   11.1   10.4    87    8.4   0.0   ---  0.00   0.0   ---   10.5   10.6   10.6    8.8  1030.2  0.00   0.0     0     0.00      0     0.0  0.00   0.0   0.163   0.000   25.1    35    0.00   701    1    100.0   30 
16/09/20 10:00p    9.9   10.4    9.9    89    8.2   0.0   ---  0.00   0.0   ---    9.9   10.1   10.1    8.3  1030.3  0.00   0.0     0     0.00      0     0.0  0.00   0.0   0.176   0.000   24.9    35    0.00   701    1    100.0   30 
16/09/20 10:30p    9.2    9.9    9.2    90    7.7   0.0   ---  0.00   0.0   ---    9.2    9.4    9.4    7.6  1030.2  0.00   0.0     0     0.00      0     0.0  0.00   0.0   0.190   0.000   24.7    35    0.00   702    1    100.0   30 
16/09/20 11:00p    9.1    9.2    9.0    91    7.7   0.0   NNE  0.00   4.8   NNE    9.1    9.2    9.2    7.4  1030.3  0.00   0.0     0     0.00      0     0.0  0.00   0.0   0.193   0.000   24.5    35    0.00   700    1    100.0   30 
16/09/20 11:30p    9.2    9.2    9.0    92    7.9   0.0   ---  0.00   0.0   ---    9.2    9.3    9.3    7.6  1030.5  0.00   0.0     0     0.00      0     0.0  0.00   0.0   0.191   0.000   24.4    35    0.00   702    1    100.0   30 
17/09/20 12:00a    9.2    9.3    9.2    91    7.8   0.0   ---  0.00   0.0   ---    9.2    9.3    9.3    7.6  1031.0  0.00   0.0     0     0.00      0     0.0  0.00   0.0   0.191   0.000   24.2    35    0.00   698    1    100.0   30 
17/09/20 12:30a    8.9    9.2    8.9    91    7.6   0.0   ---  0.00   0.0   ---    8.9    9.1    9.1    7.3  1031.4  0.00   0.0     0     0.00      0     0.0  0.00   0.0   0.196   0.000   24.1    35    0.00   702    1    100.0   30 
17/09/20  1:00a    9.2    9.2    8.9    92    8.0   0.0   ---  0.00   0.0   ---    9.2    9.4    9.4    7.6  1031.8  0.00   0.0     0     0.00      0     0.0  0.00   0.0   0.190   0.000   24.0    35    0.00   675    1     98.7   30 
17/09/20  1:30a   11.1   11.1    9.2    93   10.0   0.0   NNW  0.00   8.0   NNW   11.1   11.2   11.2    9.5  1032.7  0.00   0.0     0     0.00      0     0.0  0.00   0.0   0.152   0.000   23.9    36    0.00   699    1    100.0   30 
17/09/20  2:00a   12.6   12.6   11.1    90   11.0   0.0   SSE  0.00  25.7   SSE   12.6   12.7   12.7   11.0  1033.3  0.00   0.0     0     0.00      0     0.0  0.00   0.0   0.119   0.000   23.9    36    0.00   674    1     98.5   30 
17/09/20  2:30a   12.8   12.8   12.6    90   11.2   1.6   SSE  0.80  32.2    SW   12.8   12.9   12.9   11.3  1033.6  0.00   0.0     0     0.00      0     0.0  0.00   0.0   0.115   0.000   23.9    36    0.00   700    1    100.0   30 
17/09/20  3:00a   12.8   12.8   12.8    90   11.2   0.0    SW  0.00  20.9   SSW   12.8   12.8   12.8   11.2  1033.9  0.00   0.0     0     0.00      0     0.0  0.00   0.0   0.116   0.000   24.0    36    0.00   698    1    100.0   30 
17/09/20  3:30a   12.7   12.8   12.7    91   11.3   0.0   ---  0.00   0.0   ---   12.7   12.8   12.8   11.2  1034.7  0.00   0.0     0     0.00      0     0.0  0.00   0.0   0.117   0.000   24.0    36    0.00   699    1    100.0   30 
17/09/20  4:00a   12.5   12.7   12.5    91   11.1   0.0   ---  0.00   0.0   ---   12.5   12.6   12.6   10.9  1034.5  0.00   0.0     0     0.00      0     0.0  0.00   0.0   0.122   0.000   24.0    37    0.00   698    1    100.0   30 
17/09/20  4:30a   12.1   12.5   12.1    92   10.9   0.0   ESE  0.00  24.1   ESE   12.1   12.2   12.2   10.5  1033.3  0.25   0.0     0     0.00      0     0.0  0.00   0.0   0.130   0.000   24.1    37    0.00   674    1     98.5   30 
17/09/20  5:00a   12.0   12.2   12.0    93   10.9   0.0   ---  0.00   0.0   ---   12.0   12.1   12.1   10.4  1034.5  0.00   0.0     0     0.00      0     0.0  0.00   0.0   0.132   0.000   24.1    37    0.00   698    1    100.0   30 
17/09/20  5:30a   11.9   12.0   11.9    93   10.8   0.0   ---  0.00   0.0   ---   11.9   12.1   12.1   10.4  1034.7  0.00   0.0     0     0.00      0     0.0  0.00   0.0   0.133   0.000   24.1    37    0.00   698    1    100.0   30 
17/09/20  6:00a   11.8   11.9   11.8    94   10.9   0.0   ---  0.00   0.0   ---   11.8   11.9   11.9   10.3  1035.4  0.00   0.0     0     0.00      0     0.0  0.00   0.0   0.135   0.000   24.1    37    0.00   696    1    100.0   30 
17/09/20  6:30a   11.8   11.8   11.8    94   10.8   0.0   ---  0.00   0.0   ---   11.8   11.9   11.9   10.3  1035.8  0.00   0.0     1     0.04      5     0.0  0.00   0.0   0.137   0.000   24.1    37    0.00   699    1    100.0   30 
17/09/20  7:00a   11.9   11.9   11.8    95   11.1   0.0   ---  0.00   0.0   ---   11.9   12.1   12.1   10.7  1036.1  0.00   0.0    19     0.82     46     0.0  0.00   0.0   0.134   0.000   24.0    37    0.00   698    1    100.0   30 
17/09/20  7:30a   12.1   12.1   11.9    95   11.3   0.0   ---  0.00   0.0   ---   12.1   12.2   12.2   10.9  1036.7  0.00   0.0    30     1.29     44     0.0  0.00   0.0   0.130   0.000   24.0    37    0.00   698    1    100.0   30 
17/09/20  8:00a   12.3   12.3   12.1    95   11.6   0.0   ---  0.00   0.0   ---   12.3   12.4   12.4   12.4  1037.4  0.00   0.0    39     1.68     49     0.0  0.00   0.0   0.125   0.000   24.1    37    0.03   695    1    100.0   30 
17/09/20  8:30a   12.4   12.4   12.3    95   11.7   0.0   ESE  0.00   4.8   ESE   12.4   12.6   12.6   12.8  1037.9  0.00   0.0    58     2.49     79     0.0  0.00   0.0   0.123   0.000   23.9    38    0.00   699    1    100.0   30 
17/09/20  9:00a   12.3   12.5   12.3    95   11.6   0.0   SSE  0.00  16.1   SSE   12.3   12.4   12.4   12.9  1038.3  0.00   0.0    73     3.14    109     0.0  0.00   0.0   0.125   0.000   23.1    39    0.03   703    1    100.0   30 
17/09/20  9:30a   12.4   12.4   12.1    95   11.7   0.0   ---  0.00   0.0   ---   12.4   12.6   12.6   14.4  1038.4  0.25   0.0   155     6.67    248     0.2  0.04   0.8   0.123   0.000   22.7    40    0.00   701    1    100.0   30 
17/09/20 10:00a   13.2   13.2   12.4    92   12.0   0.0   SSE  0.00  11.3   SSE   13.2   13.3   13.3   16.9  1038.6  0.00   0.0   283    12.17    468     1.1  0.24   1.6   0.106   0.000   22.9    41    0.10   703    1    100.0   30 
17/09/20 10:30a   14.6   14.6   13.2    81   11.4   0.0     S  0.00   9.7   SSE   14.6   14.5   14.5   18.7  1038.7  0.00   0.0   346    14.88    410     1.5  0.32   1.7   0.078   0.000   22.8    42    0.00   699    1    100.0   30 
17/09/20 11:00a   15.3   15.3   14.6    74   10.7   0.0   SSE  0.00  11.3   SSE   15.3   15.1   15.1   19.3  1038.6  0.00   0.0   368    15.83    431     1.6  0.34   1.9   0.063   0.000   22.8    42    0.18   670    1     98.0   30 
17/09/20 11:30a   15.2   15.4   15.2    72   10.2   0.0   ESE  0.00  17.7     S   15.2   14.9   14.9   18.1  1038.5  0.00   0.0   294    12.64    345     1.3  0.28   1.6   0.065   0.000   22.8    42    0.00   700    1    100.0   30 
17/09/20 12:00p   15.5   15.5   15.2    70   10.0   0.0     S  0.00  11.3   SSE   15.5   15.2   15.2   19.4  1038.5  0.00   0.0   390    16.77    545     1.8  0.39   2.5   0.059   0.000   23.1    43    0.18   701    1    100.0   30 
17/09/20 12:30p   16.3   16.3   15.5    69   10.6   0.0   SSE  0.00   6.4     S   16.3   15.9   15.9   21.7  1038.4  0.00   0.0   585    25.16    768     2.8  0.60   3.6   0.043   0.000   23.5    42    0.00   700    1    100.0   30 
17/09/20  1:00p   15.6   16.3   15.6    71   10.4   0.0   ---  0.00   0.0   ---   15.6   15.3   15.3   19.8  1038.3  0.00   0.0   413    17.76    605     2.1  0.45   3.0   0.057   0.000   23.5    42    0.28   701    1    100.0   30 
17/09/20  1:30p   15.9   15.9   15.3    71   10.7   0.0   ---  0.00   0.0   ---   15.9   15.7   15.7   20.3  1038.3  0.00   0.0   408    17.55    865     2.0  0.43   3.6   0.050   0.000   23.5    43    0.00   702    1    100.0   30 
17/09/20  2:00p   15.7   16.6   15.7    71   10.5   0.0   ---  0.00   0.0   ---   15.7   15.4   15.4   19.8  1038.4  0.00   0.0   375    16.13    684     1.7  0.36   3.0   0.054   0.000   23.6    43    0.23   702    1    100.0   30 
17/09/20  2:30p   15.8   15.9   15.7    68    9.9   0.0   ---  0.00   0.0   ---   15.8   15.4   15.4   19.8  1038.5  0.00   0.0   358    15.40    624     1.6  0.34   2.0   0.053   0.000   23.7    43    0.00   699    1    100.0   30 
17/09/20  3:00p   15.3   15.8   15.3    73   10.5   0.0   ---  0.00   0.0   ---   15.3   15.1   15.1   18.4  1038.5  0.00   0.0   251    10.79    378     0.9  0.19   1.3   0.063   0.000   23.8    43    0.18   701    1    100.0   30 
17/09/20  3:30p   14.8   15.3   14.8    74   10.2   0.0   ---  0.00   0.0   ---   14.8   14.5   14.5   16.8  1038.6  0.00   0.0   170     7.31    209     0.4  0.09   0.7   0.074   0.000   23.9    43    0.00   700    1    100.0   30 
17/09/20  4:00p   14.8   14.8   14.7    74   10.2   0.0   ---  0.00   0.0   ---   14.8   14.5   14.5   17.5  1038.8  0.00   0.0   194     8.34    220     0.3  0.06   0.5   0.074   0.000   23.8    43    0.10   698    1    100.0   30 
17/09/20  4:30p   14.7   14.8   14.7    75   10.3   0.0   ---  0.00   0.0   ---   14.7   14.4   14.4   16.3  1039.0  0.00   0.0   128     5.50    192     0.0  0.00   0.0   0.076   0.000   24.1    43    0.00   701    1    100.0   30 
17/09/20  5:00p   14.3   14.7   14.3    77   10.4   0.0   ---  0.00   0.0   ---   14.3   14.1   14.1   13.6  1039.4  0.00   0.0    85     3.66     98     0.0  0.00   0.0   0.083   0.000   24.3    42    0.05   701    1    100.0   30 
17/09/20  5:30p   14.0   14.3   14.0    77   10.0   0.0   ---  0.00   0.0   ---   14.0   13.8   13.8   12.8  1039.5  0.00   0.0    51     2.19     76     0.0  0.00   0.0   0.090   0.000   24.0    42    0.00   699    1    100.0   30 
17/09/20  6:00p   13.7   14.0   13.7    79   10.1   0.0   ---  0.00   0.0   ---   13.7   13.6   13.6   12.2  1039.8  0.00   0.0    19     0.82     26     0.0  0.00   0.0   0.096   0.000   24.4    42    0.03   672    1     98.2   30 
17/09/20  6:30p   13.4   13.7   13.4    80   10.1   0.0   ---  0.00   0.0   ---   13.4   13.3   13.3   11.7  1040.4  0.00   0.0     0     0.00      5     0.0  0.00   0.0   0.102   0.000   24.6    42    0.00   703    1    100.0   30 
17/09/20  7:00p   12.9   13.4   12.9    80    9.5   0.0   ---  0.00   0.0   ---   12.9   12.7   12.7   11.1  1040.6  0.00   0.0     0     0.00      0     0.0  0.00   0.0   0.113   0.000   24.7    41    0.00   699    1    100.0   30 
17/09/20  7:30p   12.5   12.9   12.5    82    9.5   0.0   ---  0.00   0.0   ---   12.5   12.4   12.4   10.8  1041.0  0.00   0.0     0     0.00      0     0.0  0.00   0.0   0.122   0.000   24.8    41    0.00   700    1    100.0   30 
17/09/20  8:00p   12.3   12.5   12.3    83    9.5   0.0   ---  0.00   0.0   ---   12.3   12.2   12.2   10.6  1041.2  0.00   0.0     0     0.00      0     0.0  0.00   0.0   0.126   0.000   24.7    41    0.03   701    1    100.0   30 
17/09/20  8:30p   12.1   12.3   12.1    84    9.4   0.0   ---  0.00   0.0   ---   12.1   12.0   12.0   10.3  1041.4  0.00   0.0     0     0.00      0     0.0  0.00   0.0   0.131   0.000   24.7    40    0.00   703    1    100.0   30 
17/09/20  9:00p   11.9   12.1   11.9    85    9.4   0.0   ---  0.00   0.0   ---   11.9   11.8   11.8   10.2  1041.4  0.00   0.0     0     0.00      0     0.0  0.00   0.0   0.134   0.000   24.6    40    0.00   702    1    100.0   30 
17/09/20  9:30p   11.8   11.9   11.8    86    9.5   0.0   ---  0.00   0.0   ---   11.8   11.7   11.7   10.1  1041.1  0.00   0.0     0     0.00      0     0.0  0.00   0.0   0.137   0.000   24.6    40    0.00   699    1    100.0   30 
17/09/20 10:00p   11.7   11.8   11.7    86    9.4   0.0   ---  0.00   0.0   ---   11.7   11.6   11.6    9.9  1041.4  0.00   0.0     0     0.00      0     0.0  0.00   0.0   0.139   0.000   24.5    40    0.00   700    1    100.0   30 
17/09/20 10:30p   11.2   11.7   11.2    87    9.1   0.0   ---  0.00   0.0   ---   11.2   11.3   11.3    9.6  1041.1  0.00   0.0     0     0.00      0     0.0  0.00   0.0   0.148   0.000   24.5    40    0.00   699    1    100.0   30 
17/09/20 11:00p   10.7   11.3   10.7    89    8.9   0.0   ---  0.00   0.0   ---   10.7   10.8   10.8    9.1  1041.0  0.00   0.0     0     0.00      0     0.0  0.00   0.0   0.160   0.000   24.4    40    0.00   677    1     99.0   30 
17/09/20 11:30p   10.1   10.7   10.1    90    8.5   0.0   ---  0.00   0.0   ---   10.1   10.2   10.2    8.6  1040.9  0.00   0.0     0     0.00      0     0.0  0.00   0.0   0.172   0.000   24.3    40    0.00   699    1    100.0   30 
18/09/20 12:00a    9.9   10.1    9.9    91    8.5   0.0   ---  0.00   0.0   ---    9.9   10.1   10.1    8.4  1041.0  0.00   0.0     0     0.00      0     0.0  0.00   0.0   0.175   0.000   24.2    40    0.00   702    1    100.0   30 
18/09/20 12:30a    9.7   10.0    9.7    92    8.5   0.0   ---  0.00   0.0   ---    9.7    9.9    9.9    8.3  1041.0  0.00   0.0     0     0.00      0     0.0  0.00   0.0   0.179   0.000   24.1    40    0.00   701    1    100.0   30 
18/09/20  1:00a    9.6    9.7    9.6    92    8.4   0.0   ---  0.00   0.0   ---    9.6    9.8    9.8    8.2  1041.0  0.00   0.0     0     0.00      0     0.0  0.00   0.0   0.182   0.000   24.1    40    0.00   673    1     98.4   30 
18/09/20  1:30a    9.5    9.7    9.5    93    8.4   0.0   ---  0.00   0.0   ---    9.5    9.7    9.7    8.1  1040.7  0.00   0.0     0     0.00      0     0.0  0.00   0.0   0.184   0.000   24.0    40    0.00   701    1    100.0   30 
18/09/20  2:00a    9.2    9.5    9.2    93    8.1   0.0   ---  0.00   0.0   ---    9.2    9.4    9.4    7.8  1040.5  0.00   0.0     0     0.00      0     0.0  0.00   0.0   0.190   0.000   23.9    40    0.00   700    1    100.0   30 
18/09/20  2:30a    8.8    9.2    8.8    93    7.8   0.0   ---  0.00   0.0   ---    8.8    9.0    9.0    7.3  1040.3  0.00   0.0     0     0.00      0     0.0  0.00   0.0   0.198   0.000   23.8    39    0.00   699    1    100.0   30 
18/09/20  3:00a    8.4    8.8    8.4    94    7.5   0.0   ---  0.00   0.0   ---    8.4    8.6    8.6    6.8  1040.1  0.00   0.0     0     0.00      0     0.0  0.00   0.0   0.207   0.000   23.7    39    0.00   676    1     98.8   30 
18/09/20  3:30a    8.2    8.4    8.2    94    7.3   0.0   ---  0.00   0.0   ---    8.2    8.4    8.4    6.7  1040.1  0.00   0.0     0     0.00      0     0.0  0.00   0.0   0.211   0.000   23.6    39    0.00   702    1    100.0   30 
18/09/20  4:00a    7.8    8.2    7.8    94    6.9   0.0   ---  0.00   0.0   ---    7.8    8.0    8.0    6.3  1040.1  0.00   0.0     0     0.00      0     0.0  0.00   0.0   0.219   0.000   23.5    39    0.00   698    1    100.0   30 
18/09/20  4:30a    7.6    7.9    7.6    94    6.7   0.0   ---  0.00   0.0   ---    7.6    7.7    7.7    5.9  1040.1  0.00   0.0     0     0.00      0     0.0  0.00   0.0   0.225   0.000   23.4    39    0.00   669    1     97.8   30 
18/09/20  5:00a    7.4    7.6    7.4    95    6.7   0.0   ---  0.00   0.0   ---    7.4    7.6    7.6    5.8  1040.4  0.00   0.0     0     0.00      0     0.0  0.00   0.0   0.227   0.000   23.2    39    0.00   702    1    100.0   30 
18/09/20  5:30a    7.4    7.4    7.3    95    6.6   0.0   ---  0.00   0.0   ---    7.4    7.5    7.5    5.7  1040.5  0.00   0.0     0     0.00      0     0.0  0.00   0.0   0.228   0.000   23.2    39    0.00   700    1    100.0   30 
18/09/20  6:00a    7.8    7.8    7.4    95    7.0   0.0   ---  0.00   0.0   ---    7.8    7.9    7.9    6.2  1040.8  0.00   0.0     0     0.00      0     0.0  0.00   0.0   0.220   0.000   23.1    39    0.00   697    1    100.0   30 
18/09/20  6:30a    8.0    8.1    7.8    95    7.2   0.0   ---  0.00   0.0   ---    8.0    8.2    8.2    6.5  1040.9  0.00   0.0     5     0.22     12     0.0  0.00   0.0   0.215   0.000   23.1    39    0.00   679    1     99.3   30 
18/09/20  7:00a    8.3    8.3    8.0    96    7.7   0.0   ---  0.00   0.0   ---    8.3    8.5    8.5    7.1  1041.4  0.00   0.0    21     0.90     37     0.0  0.00   0.0   0.208   0.000   23.1    39    0.00   700    1    100.0   30 
18/09/20  7:30a    8.9    8.9    8.3    96    8.3   0.0   ---  0.00   0.0   ---    8.9    9.2    9.2    8.2  1041.7  0.00   0.0    59     2.54     86     0.0  0.00   0.0   0.196   0.000   23.1    39    0.00   701    1    100.0   30 
18/09/20  8:00a   10.0   10.0    8.9    96    9.4   0.0   ---  0.00   0.0   ---   10.0   10.3   10.3   11.9  1041.7  0.00   0.0   117     5.03    160     0.0  0.00   0.0   0.174   0.000   23.1    39    0.05   701    1    100.0   30 
18/09/20  8:30a   11.1   11.1   10.0    96   10.4   0.0   ---  0.00   0.0   ---   11.1   11.3   11.3   14.3  1041.8  0.00   0.0   191     8.21    218     0.0  0.00   0.0   0.152   0.000   23.2    39    0.00   679    1     99.3   30 
18/09/20  9:00a   12.1   12.1   11.1    94   11.1   0.0   ---  0.00   0.0   ---   12.1   12.2   12.2   15.3  1041.8  0.00   0.0   209     8.99    278     0.4  0.09   0.9   0.131   0.000   23.4    39    0.10   699    1    100.0   30 
18/09/20  9:30a   13.5   13.5   12.1    84   10.8   0.0   ---  0.00   0.0   ---   13.5   13.4   13.4   18.2  1041.8  0.00   0.0   349    15.01    568     1.1  0.24   1.4   0.101   0.000   23.6    39    0.00   701    1    100.0   30 
18/09/20 10:00a   14.6   14.6   13.5    80   11.2   0.0   ---  0.00   0.0   ---   14.6   14.5   14.5   19.3  1041.6  0.00   0.0   385    16.56    912     1.4  0.30   2.4   0.078   0.000   23.9    39    0.20   699    1    100.0   30 
18/09/20 10:30a   14.8   14.8   14.6    77   10.8   0.0   ---  0.00   0.0   ---   14.8   14.6   14.6   18.7  1041.3  0.00   0.0   340    14.62    385     1.6  0.34   2.0   0.073   0.000   24.1    39    0.00   700    1    100.0   30 
18/09/20 11:00a   15.1   15.1   14.8    76   10.9   0.0   ---  0.00   0.0   ---   15.1   14.9   14.9   18.7  1041.0  0.00   0.0   330    14.19    378     1.6  0.34   1.9   0.067   0.000   24.3    39    0.18   698    1    100.0   30 
18/09/20 11:30a   15.9   15.9   15.1    74   11.3   0.0   ---  0.00   0.0   ---   15.9   15.7   15.7   19.2  1040.8  0.00   0.0   316    13.59    339     1.6  0.34   1.8   0.051   0.000   24.6    38    0.00   701    1    100.0   30 
18/09/20 12:00p   16.4   16.6   15.9    74   11.8   0.0   ---  0.00   0.0   ---   16.4   16.3   16.3   20.4  1040.4  0.00   0.0   377    16.21    501     2.0  0.43   2.7   0.039   0.000   24.8    38    0.18   701    1    100.0   30 
18/09/20 12:30p   16.9   16.9   16.4    73   12.0   0.0   ---  0.00   0.0   ---   16.9   16.7   16.7   20.7  1040.0  0.00   0.0   358    15.40    417     1.9  0.41   2.3   0.030   0.000   25.0    38    0.00   701    1    100.0   30 
18/09/20  1:00p   17.7   17.7   16.9    70   12.1   0.0   ---  0.00   0.0   ---   17.7   17.6   17.6   22.3  1039.5  0.00   0.0   426    18.32    524     2.2  0.47   2.9   0.014   0.000   25.2    38    0.20   702    1    100.0   30 
18/09/20  1:30p   17.8   17.9   17.7    71   12.5   0.0   ---  0.00   0.0   ---   17.8   17.8   17.8   20.9  1039.1  0.00   0.0   273    11.74    323     1.4  0.30   1.7   0.010   0.000   25.4    38    0.00   702    1    100.0   30 
18/09/20  2:00p   18.2   18.2   17.8    70   12.6   0.0   ---  0.00   0.0   ---   18.2   18.1   18.1   22.1  1038.8  0.00   0.0   327    14.06    436     1.6  0.34   1.9   0.003   0.000   25.6    38    0.18   672    1     98.2   30 
18/09/20  2:30p   18.1   18.2   18.1    70   12.5   0.0   ---  0.00   0.0   ---   18.1   18.0   18.0   20.8  1038.4  0.00   0.0   231     9.93    287     1.0  0.21   1.3   0.006   0.000   25.8    38    0.00   701    1    100.0   30 
18/09/20  3:00p   18.4   18.4   18.1    71   13.0   0.0   ---  0.00   0.0   ---   18.4   18.4   18.4   21.7  1038.1  0.00   0.0   239    10.28    264     0.9  0.19   1.0   0.000   0.001   25.9    38    0.13   700    1    100.0   30 
18/09/20  3:30p   18.7   18.7   18.3    71   13.4   0.0   ---  0.00   0.0   ---   18.7   18.8   18.8   22.6  1037.8  0.00   0.0   252    10.84    329     0.9  0.19   1.1   0.000   0.008   26.1    38    0.00   700    1    100.0   30 
18/09/20  4:00p   19.2   19.3   18.7    70   13.6   0.0   ---  0.00   0.0   ---   19.2   19.3   19.3   23.6  1037.5  0.00   0.0   272    11.70    487     0.8  0.17   1.1   0.000   0.017   26.2    39    0.15   701    1    100.0   30 
18/09/20  4:30p   18.8   19.2   18.8    71   13.5   0.0   ---  0.00   0.0   ---   18.8   18.9   18.9   21.3  1037.5  0.00   0.0   149     6.41    213     0.1  0.02   0.6   0.000   0.010   26.3    39    0.00   701    1    100.0   30 
18/09/20  5:00p   18.8   18.8   18.7    71   13.5   0.0   ---  0.00   0.0   ---   18.8   18.9   18.9   18.6  1037.6  0.00   0.0    87     3.74     98     0.0  0.00   0.0   0.000   0.010   26.4    39    0.08   700    1    100.0   30 
18/09/20  5:30p   19.1   19.1   18.8    71   13.7   0.0   ---  0.00   0.0   ---   19.1   19.2   19.2   18.7  1037.5  0.00   0.0    77     3.31    121     0.0  0.00   0.0   0.000   0.015   26.4    39    0.00   701    1    100.0   30 
18/09/20  6:00p   18.4   19.1   18.4    75   13.9   0.0   ---  0.00   0.0   ---   18.4   18.6   18.6   17.3  1037.7  0.00   0.0    19     0.82     35     0.0  0.00   0.0   0.000   0.001   26.4    39    0.03   680    1     99.4   30 
18/09/20  6:30p   17.6   18.4   17.6    79   13.9   0.0   ---  0.00   0.0   ---   17.6   17.7   17.7   16.3  1037.8  0.00   0.0     1     0.04      7     0.0  0.00   0.0   0.016   0.000   26.4    39    0.00   700    1    100.0   30 
18/09/20  7:00p   16.7   17.6   16.7    82   13.6   0.0   ---  0.00   0.0   ---   16.7   16.8   16.8   15.3  1037.5  0.00   0.0     0     0.00      0     0.0  0.00   0.0   0.035   0.000   26.3    39    0.00   699    1    100.0   30 
18/09/20  7:30p   15.7   16.7   15.7    85   13.2   0.0   ---  0.00   0.0   ---   15.7   15.7   15.7   14.2  1037.7  0.00   0.0     0     0.00      0     0.0  0.00   0.0   0.056   0.000   26.2    39    0.00   700    1    100.0   30 
18/09/20  8:00p   14.6   15.7   14.6    87   12.4   0.0   ---  0.00   0.0   ---   14.6   14.6   14.6   13.0  1038.0  0.00   0.0     0     0.00      0     0.0  0.00   0.0   0.079   0.000   26.1    39    0.03   702    1    100.0   30 
18/09/20  8:30p   13.7   14.6   13.7    89   11.9   0.0   ---  0.00   0.0   ---   13.7   13.8   13.8   12.2  1037.8  0.00   0.0     0     0.00      0     0.0  0.00   0.0   0.096   0.000   25.9    39    0.00   700    1    100.0   30 
18/09/20  9:00p   13.2   13.7   13.2    90   11.6   0.0   ---  0.00   0.0   ---   13.2   13.2   13.2   11.7  1037.7  0.00   0.0     0     0.00      0     0.0  0.00   0.0   0.108   0.000   25.8    39    0.00   701    1    100.0   30 
18/09/20  9:30p   12.7   13.2   12.7    91   11.2   0.0   ---  0.00   0.0   ---   12.7   12.7   12.7   11.2  1037.5  0.00   0.0     0     0.00      0     0.0  0.00   0.0   0.118   0.000   25.6    40    0.00   698    1    100.0   30 
18/09/20 10:00p   12.3   12.7   12.3    92   11.1   0.0   ---  0.00   0.0   ---   12.3   12.4   12.4   10.8  1037.3  0.00   0.0     0     0.00      0     0.0  0.00   0.0   0.125   0.000   25.5    40    0.00   702    1    100.0   30 
18/09/20 10:30p   12.0   12.4   12.0    93   10.9   0.0   ---  0.00   0.0   ---   12.0   12.1   12.1   10.5  1036.8  0.00   0.0     0     0.00      0     0.0  0.00   0.0   0.132   0.000   25.3    40    0.00   698    1    100.0   30 
18/09/20 11:00p   11.4   12.0   11.4    93   10.4   0.0   ---  0.00   0.0   ---   11.4   11.6   11.6    9.9  1036.6  0.00   0.0     0     0.00      0     0.0  0.00   0.0   0.144   0.000   25.2    40    0.00   699    1    100.0   30 
18/09/20 11:30p   11.0   11.4   10.9    93    9.9   0.0   ---  0.00   0.0   ---   11.0   11.2   11.2    9.5  1036.5  0.00   0.0     0     0.00      0     0.0  0.00   0.0   0.153   0.000   25.0    40    0.00   679    1     99.3   30 
19/09/20 12:00a   10.8   11.0   10.8    94    9.9   0.0   ---  0.00   0.0   ---   10.8   10.9   10.9    9.3  1036.5  0.00   0.0     0     0.00      0     0.0  0.00   0.0   0.157   0.000   24.9    40    0.00   702    1    100.0   30 
19/09/20 12:30a   10.4   10.8   10.4    94    9.5   0.0   ---  0.00   0.0   ---   10.4   10.7   10.7    9.0  1036.6  0.00   0.0     0     0.00      0     0.0  0.00   0.0   0.164   0.000   24.8    40    0.00   701    1    100.0   30 
19/09/20  1:00a   10.2   10.5   10.2    94    9.3   0.0   ---  0.00   0.0   ---   10.2   10.4   10.4    8.8  1036.3  0.00   0.0     0     0.00      0     0.0  0.00   0.0   0.169   0.000   24.6    40    0.00   701    1    100.0   30 
19/09/20  1:30a   10.4   10.4   10.2    95    9.7   0.0   ---  0.00   0.0   ---   10.4   10.7   10.7    9.0  1036.0  0.00   0.0     0     0.00      0     0.0  0.00   0.0   0.164   0.000   24.5    40    0.00   699    1    100.0   30 
19/09/20  2:00a   10.7   10.7   10.4    95    9.9   0.0   ---  0.00   0.0   ---   10.7   10.9   10.9    9.2  1035.4  0.00   0.0     0     0.00      0     0.0  0.00   0.0   0.160   0.000   24.5    40    0.00   701    1    100.0   30 
19/09/20  2:30a   10.8   10.8   10.6    95   10.0   0.0   ---  0.00   0.0   ---   10.8   11.0   11.0    9.4  1035.0  0.00   0.0     0     0.00      0     0.0  0.00   0.0   0.157   0.000   24.4    40    0.00   700    1    100.0   30 
19/09/20  3:00a   10.8   11.1   10.8    95   10.1   0.0   ---  0.00   0.0   ---   10.8   11.1   11.1    9.4  1034.9  0.00   0.0     0     0.00      0     0.0  0.00   0.0   0.156   0.000   24.4    40    0.00   699    1    100.0   30 
19/09/20  3:30a   10.6   10.8   10.6    96    9.9   0.0   ---  0.00   0.0   ---   10.6   10.8   10.8    9.1  1034.6  0.00   0.0     0     0.00      0     0.0  0.00   0.0   0.162   0.000   24.3    40    0.00   699    1    100.0   30 
19/09/20  4:00a   10.8   10.8   10.6    96   10.2   0.0   ---  0.00   0.0   ---   10.8   11.0   11.0    9.4  1034.2  0.00   0.0     0     0.00      0     0.0  0.00   0.0   0.157   0.000   24.3    40    0.00   702    1    100.0   30 
19/09/20  4:30a   10.9   10.9   10.8    96   10.3   0.0   ---  0.00   0.0   ---   10.9   11.1   11.1    9.5  1034.3  0.00   0.0     0     0.00      0     0.0  0.00   0.0   0.155   0.000   24.3    40    0.00   701    1    100.0   30 
19/09/20  5:00a   10.6   10.9   10.6    96    9.9   0.0   ---  0.00   0.0   ---   10.6   10.8   10.8    9.1  1034.2  0.00   0.0     0     0.00      0     0.0  0.00   0.0   0.162   0.000   24.2    40    0.00   697    1    100.0   30 
19/09/20  5:30a   10.6   10.6   10.3    96    9.9   0.0   ---  0.00   0.0   ---   10.6   10.8   10.8    9.1  1034.1  0.00   0.0     0     0.00      0     0.0  0.00   0.0   0.162   0.000   24.1    40    0.00   700    1    100.0   30 
19/09/20  6:00a   10.7   10.7   10.6    96   10.1   0.0   ---  0.00   0.0   ---   10.7   10.9   10.9    9.3  1034.2  0.00   0.0     0     0.00      0     0.0  0.00   0.0   0.159   0.000   24.0    40    0.00   702    1    100.0   30 
19/09/20  6:30a   10.9   10.9   10.7    96   10.3   0.0   ---  0.00   0.0   ---   10.9   11.1   11.1    9.5  1034.3  0.00   0.0     3     0.13     12     0.0  0.00   0.0   0.155   0.000   24.0    40    0.00   702    1    100.0   30 
19/09/20  7:00a   11.1   11.1   10.9    97   10.7   0.0   ---  0.00   0.0   ---   11.1   11.3   11.3   10.1  1034.4  0.00   0.0    29     1.25     44     0.0  0.00   0.0   0.150   0.000   24.0    40    0.00   697    1    100.0   30 
19/09/20  7:30a   11.7   11.7   11.1    97   11.2   0.0   ---  0.00   0.0   ---   11.7   11.8   11.8   10.7  1034.3  0.00   0.0    39     1.68     44     0.0  0.00   0.0   0.139   0.000   24.0    40    0.00   698    1    100.0   30 
19/09/20  8:00a   12.5   12.5   11.7    97   12.0   0.0   ---  0.00   0.0   ---   12.5   12.7   12.7   13.8  1034.0  0.00   0.0    88     3.78    151     0.0  0.00   0.0   0.122   0.000   24.1    40    0.03   701    1    100.0   30 
19/09/20  8:30a   14.6   14.6   12.5    97   14.1   0.0   ---  0.00   0.0   ---   14.6   14.8   14.8   17.6  1033.7  0.00   0.0   172     7.40    211     0.1  0.02   0.5   0.079   0.000   24.1    40    0.00   700    1    100.0   30 
19/09/20  9:00a   17.2   17.2   14.6    93   16.1   0.0   ---  0.00   0.0   ---   17.2   17.7   17.7   21.9  1033.3  0.00   0.0   274    11.78    517     0.8  0.17   1.1   0.023   0.000   24.3    40    0.13   700    1    100.0   30 
19/09/20  9:30a   22.2   22.2   17.2    62   14.5   0.0   ---  0.00   0.0   ---   22.2   22.2   22.2   28.7  1033.1  0.00   0.0   519    22.32    673     1.4  0.30   1.7   0.000   0.080   24.6    40    0.00   702    1    100.0   30 
19/09/20 10:00a   21.9   22.6   21.8    63   14.6   0.0   ---  0.00   0.0   ---   21.9   21.9   21.9   27.1  1032.8  0.00   0.0   403    17.33    686     1.5  0.32   2.5   0.000   0.075   24.9    40    0.28   701    1    100.0   30 
19/09/20 10:30a   22.3   22.8   21.9    60   14.2   0.0   ---  0.00   0.0   ---   22.3   22.3   22.3   26.7  1032.3  0.00   0.0   352    15.14    926     1.8  0.39   2.6   0.000   0.083   25.2    40    0.00   700    1    100.0   30 
19/09/20 11:00a   23.9   23.9   22.3    57   14.9   0.0   ---  0.00   0.0   ---   23.9   24.3   24.3   31.3  1031.6  0.00   0.0   735    31.61    937     3.0  0.64   3.3   0.000   0.116   25.5    40    0.36   700    1    100.0   30 
19/09/20 11:30a   24.2   24.2   23.6    55   14.6   0.0   ---  0.00   0.0   ---   24.2   24.4   24.4   31.9  1031.0  0.00   0.0   808    34.75    951     3.0  0.64   3.8   0.000   0.123   25.8    40    0.00   701    1    100.0   30 
19/09/20 12:00p   23.8   24.4   23.8    54   14.0   0.0   ---  0.00   0.0   ---   23.8   24.1   24.1   28.7  1030.4  0.00   0.0   416    17.89    997     2.7  0.58   3.9   0.000   0.115   26.2    40    0.38   700    1    100.0   30 
19/09/20 12:30p   24.0   24.0   23.6    55   14.4   0.0   ---  0.00   0.0   ---   24.0   24.3   24.3   28.0  1029.9  0.00   0.0   330    14.19    461     2.2  0.47   3.8   0.000   0.118   26.4    40    0.00   701    1    100.0   30 
19/09/20  1:00p   25.3   25.6   24.0    50   14.2   0.0   ---  0.00   0.0   ---   25.3   25.3   25.3   31.6  1029.3  0.00   0.0   712    30.62    889     3.2  0.69   3.8   0.000   0.146   26.7    40    0.33   699    1    100.0   30 
19/09/20  1:30p   25.5   25.7   25.3    50   14.3   0.0   ---  0.00   0.0   ---   25.5   25.5   25.5   32.0  1028.4  0.00   0.0   702    30.19    789     3.1  0.66   3.4   0.000   0.149   26.9    40    0.00   702    1    100.0   30 
19/09/20  2:00p   25.4   25.6   25.3    49   13.9   0.0   ---  0.00   0.0   ---   25.4   25.4   25.4   31.3  1027.7  0.00   0.0   612    26.32    673     2.6  0.56   2.9   0.000   0.148   27.2    40    0.41   701    1    100.0   30 
19/09/20  2:30p   25.3   25.7   25.2    50   14.1   0.0   ---  0.00   0.0   ---   25.3   25.2   25.2   30.9  1027.2  0.00   0.0   493    21.20    591     2.0  0.43   2.4   0.000   0.145   27.4    40    0.00   701    1    100.0   30 
19/09/20  3:00p   25.1   25.4   25.1    48   13.3   0.0   ---  0.00   0.0   ---   25.1   24.9   24.9   29.4  1026.8  0.00   0.0   326    14.02    415     1.4  0.30   1.7   0.000   0.141   27.7    40    0.25   700    1    100.0   30 
19/09/20  3:30p   25.5   25.6   25.1    49   14.0   0.0   ---  0.00   0.0   ---   25.5   25.4   25.4   30.5  1026.4  0.00   0.0   353    15.18    529     1.2  0.26   1.5   0.000   0.149   27.8    40    0.00   700    1    100.0   30 
19/09/20  4:00p   25.2   25.5   25.1    51   14.3   0.0   ---  0.00   0.0   ---   25.2   25.2   25.2   30.2  1026.0  0.00   0.0   334    14.36    441     1.0  0.21   1.1   0.000   0.142   27.9    40    0.00   701    1    100.0   30 
19/09/20  4:30p   24.6   25.2   24.6    52   14.1   0.0   ---  0.00   0.0   ---   24.6   24.7   24.7   28.2  1025.8  0.00   0.0   223     9.59    271     0.6  0.13   0.7   0.000   0.131   28.1    40    0.23   697    1    100.0   30 
19/09/20  5:00p   24.1   24.6   24.1    54   14.2   0.0   ---  0.00   0.0   ---   24.1   24.3   24.3   25.9  1025.6  0.00   0.0   124     5.33    178     0.0  0.00   0.0   0.000   0.119   28.2    40    0.13   701    1    100.0   30 
19/09/20  5:30p   23.6   24.1   23.6    56   14.3   0.0   ---  0.00   0.0   ---   23.6   23.8   23.8   22.9  1025.4  0.00   0.0    62     2.67     86     0.0  0.00   0.0   0.000   0.109   28.2    40    0.00   700    1    100.0   30 
19/09/20  6:00p   22.9   23.6   22.9    59   14.5   0.0   ---  0.00   0.0   ---   22.9   23.1   23.1   21.8  1025.5  0.00   0.0    23     0.99     42     0.0  0.00   0.0   0.000   0.095   28.2    40    0.03   700    1    100.0   30 
19/09/20  6:30p   21.4   22.9   21.4    65   14.6   0.0   ---  0.00   0.0   ---   21.4   21.3   21.3   19.8  1025.5  0.00   0.0     1     0.04      7     0.0  0.00   0.0   0.000   0.065   28.1    40    0.00   702    1    100.0   30 
19/09/20  7:00p   20.9   21.4   20.5    66   14.4   0.0   ---  0.00   0.0   ---   20.9   20.8   20.8   19.3  1025.4  0.00   0.0     0     0.00      0     0.0  0.00   0.0   0.000   0.054   27.9    40    0.00   682    1     99.7   30 
19/09/20  7:30p   22.1   22.1   20.9    60   14.0   0.0   ---  0.00   0.0   ---   22.1   22.0   22.0   20.4  1025.4  0.00   0.0     0     0.00      0     0.0  0.00   0.0   0.000   0.079   27.8    40    0.00   700    1    100.0   30 
19/09/20  8:00p   22.4   22.4   22.1    57   13.5   0.0   ---  0.00   0.0   ---   22.4   22.4   22.4   20.8  1025.4  0.00   0.0     0     0.00      0     0.0  0.00   0.0   0.000   0.086   27.8    40    0.05   702    1    100.0   30 
19/09/20  8:30p   22.3   22.5   22.3    57   13.3   0.0   ---  0.00   0.0   ---   22.3   22.1   22.1   20.5  1025.5  0.00   0.0     0     0.00      0     0.0  0.00   0.0   0.000   0.082   27.8    40    0.00   702    1    100.0   30 
19/09/20  9:00p   21.9   22.3   21.9    57   13.0   0.0   ---  0.00   0.0   ---   21.9   21.6   21.6   20.0  1025.3  0.00   0.0     0     0.00      0     0.0  0.00   0.0   0.000   0.075   27.8    40    0.05   672    1     98.2   30 
19/09/20  9:30p   21.7   22.0   21.7    58   13.1   0.0   ---  0.00   0.0   ---   21.7   21.3   21.3   19.7  1025.0  0.00   0.0     0     0.00      0     0.0  0.00   0.0   0.000   0.071   27.7    40    0.00   701    1    100.0   30 
19/09/20 10:00p   21.7   21.7   21.6    57   12.8   0.0   ---  0.00   0.0   ---   21.7   21.2   21.2   19.6  1024.8  0.00   0.0     0     0.00      0     0.0  0.00   0.0   0.000   0.069   27.7    40    0.05   702    1    100.0   30 
19/09/20 10:30p   21.6   21.7   21.6    57   12.7   0.0   ---  0.00   0.0   ---   21.6   21.2   21.2   19.5  1024.3  0.00   0.0     0     0.00      0     0.0  0.00   0.0   0.000   0.068   27.7    40    0.00   702    1    100.0   30 
19/09/20 11:00p   21.2   21.7   21.2    59   12.9   0.0   ---  0.00   0.0   ---   21.2   20.8   20.8   19.2  1023.9  0.00   0.0     0     0.00      0     0.0  0.00   0.0   0.000   0.060   27.6    40    0.05   701    1    100.0   30 
19/09/20 11:30p   20.7   21.2   20.7    62   13.1   0.0   ---  0.00   0.0   ---   20.7   20.4   20.4   18.8  1023.8  0.00   0.0     0     0.00      0     0.0  0.00   0.0   0.000   0.049   27.6    40    0.00   699    1    100.0   30 
20/09/20 12:00a   20.3   20.9   20.3    65   13.5   0.0   ---  0.00   0.0   ---   20.3   20.3   20.3   18.7  1023.6  0.00   0.0     0     0.00      0     0.0  0.00   0.0   0.000   0.042   27.4    40    0.03   700    1    100.0   30 
20/09/20 12:30a   19.8   20.3   19.8    67   13.5   0.0   ---  0.00   0.0   ---   19.8   20.0   20.0   18.4  1023.3  0.00   0.0     0     0.00      0     0.0  0.00   0.0   0.000   0.031   27.4    40    0.00   702    1    100.0   30 
20/09/20  1:00a   19.3   19.8   19.3    70   13.7   0.0   ---  0.00   0.0   ---   19.3   19.6   19.6   17.9  1023.2  0.00   0.0     0     0.00      0     0.0  0.00   0.0   0.000   0.021   27.3    40    0.03   703    1    100.0   30 
20/09/20  1:30a   19.0   19.3   19.0    73   14.0   0.0   ---  0.00   0.0   ---   19.0   19.2   19.2   17.7  1022.5  0.00   0.0     0     0.00      0     0.0  0.00   0.0   0.000   0.014   27.3    40    0.00   699    1    100.0   30 
20/09/20  2:00a   18.6   18.9   18.4    75   14.0   0.0   ---  0.00   0.0   ---   18.6   18.8   18.8   17.2  1021.3  0.00   0.0     0     0.00      0     0.0  0.00   0.0   0.000   0.005   27.2    40    0.03   702    1    100.0   30 
20/09/20  2:30a   18.6   18.7   18.6    74   13.9   0.0   ---  0.00   0.0   ---   18.6   18.8   18.8   17.2  1021.0  0.00   0.0     0     0.00      0     0.0  0.00   0.0   0.000   0.006   27.2    40    0.00   702    1    100.0   30 
20/09/20  3:00a   18.6   18.6   18.5    74   13.8   0.0   ---  0.00   0.0   ---   18.6   18.7   18.7   17.1  1020.6  0.00   0.0     0     0.00      0     0.0  0.00   0.0   0.000   0.005   27.2    40    0.03   661    1     96.6   30 
20/09/20  3:30a   18.5   18.6   18.5    74   13.8   0.0   ---  0.00   0.0   ---   18.5   18.7   18.7   17.1  1020.2  0.00   0.0     0     0.00      0     0.0  0.00   0.0   0.000   0.003   27.1    41    0.00   670    1     98.0   30 
20/09/20  4:00a   18.2   18.6   18.2    75   13.7   0.0   ---  0.00   0.0   ---   18.2   18.4   18.4   16.8  1020.0  0.00   0.0     0     0.00      0     0.0  0.00   0.0   0.002   0.000   27.0    41    0.03   699    1    100.0   30 
20/09/20  4:30a   17.6   18.2   17.6    80   14.1   0.0   ---  0.00   0.0   ---   17.6   17.8   17.8   16.3  1019.9  0.00   0.0     0     0.00      0     0.0  0.00   0.0   0.015   0.000   27.0    41    0.00   700    1    100.0   30 
20/09/20  5:00a   17.1   17.6   17.1    83   14.1   0.0   ---  0.00   0.0   ---   17.1   17.3   17.3   15.7  1019.7  0.00   0.0     0     0.00      0     0.0  0.00   0.0   0.027   0.000   27.0    41    0.03   701    1    100.0   30 
20/09/20  5:30a   17.0   17.1   17.0    84   14.3   0.0   ---  0.00   0.0   ---   17.0   17.2   17.2   15.7  1019.8  0.00   0.0     0     0.00      0     0.0  0.00   0.0   0.028   0.000   26.9    41    0.00   699    1    100.0   30 
20/09/20  6:00a   17.1   17.1   16.9    83   14.2   0.0   ---  0.00   0.0   ---   17.1   17.3   17.3   15.8  1019.7  0.00   0.0     0     0.00      0     0.0  0.00   0.0   0.025   0.000   26.9    41    0.00   698    1    100.0   30 
20/09/20  6:30a   17.3   17.3   17.1    82   14.2   0.0   ---  0.00   0.0   ---   17.3   17.5   17.5   15.9  1020.0  0.00   0.0     1     0.04      5     0.0  0.00   0.0   0.022   0.000   26.8    41    0.03   700    1    100.0   30 
20/09/20  7:00a   17.1   17.3   17.1    83   14.2   0.0   ---  0.00   0.0   ---   17.1   17.3   17.3   16.1  1020.3  0.00   0.0    23     0.99     47     0.0  0.00   0.0   0.025   0.000   26.8    41    0.00   700    1    100.0   30 
20/09/20  7:30a   17.2   17.2   17.1    83   14.3   0.0   ---  0.00   0.0   ---   17.2   17.4   17.4   16.6  1020.5  0.00   0.0    65     2.80    232     0.0  0.00   0.0   0.024   0.000   26.8    41    0.00   701    1    100.0   30 
20/09/20  8:00a   17.7   17.7   17.2    79   14.0   0.0   ---  0.00   0.0   ---   17.7   17.9   17.9   19.8  1020.4  0.00   0.0   125     5.38    301     0.0  0.00   0.0   0.014   0.000   26.8    41    0.05   701    1    100.0   30 
20/09/20  8:30a   17.8   17.8   17.7    76   13.5   0.0   ---  0.00   0.0   ---   17.8   17.9   17.9   20.5  1020.2  0.00   0.0   165     7.10    257     0.3  0.06   0.7   0.012   0.000   26.8    42    0.00   672    1     98.2   30 
20/09/20  9:00a   18.8   18.8   17.8    72   13.6   0.0   ---  0.00   0.0   ---   18.8   18.9   18.9   24.7  1019.8  0.00   0.0   415    17.85    517     1.1  0.24   1.5   0.000   0.009   26.8    42    0.15   703    1    100.0   30 
20/09/20  9:30a   19.2   19.4   18.8    68   13.1   0.0   ---  0.00   0.0   ---   19.2   19.2   19.2   26.1  1019.5  0.00   0.0   550    23.65    608     1.7  0.36   2.0   0.000   0.017   26.9    42    0.00   701    1    100.0   30 
20/09/20 10:00a   19.8   19.8   19.1    66   13.2   0.0   ---  0.00   0.0   ---   19.8   19.9   19.9   26.9  1019.6  0.00   0.0   632    27.18    717     2.3  0.49   2.6   0.000   0.030   27.0    42    0.33   701    1    100.0   30 
20/09/20 10:30a   20.2   20.2   19.7    64   13.1   0.0   ---  0.00   0.0   ---   20.2   20.2   20.2   26.9  1019.6  0.00   0.0   676    29.07    847     2.6  0.56   3.3   0.000   0.038   27.2    41    0.00   701    1    100.0   30 
20/09/20 11:00a   20.6   20.6   20.1    62   13.0   0.0   ---  0.00   0.0   ---   20.6   20.3   20.3   27.9  1019.3  0.00   0.0   793    34.10    882     3.2  0.69   3.7   0.000   0.046   27.4    41    0.38   702    1    100.0   30 
20/09/20 11:30a   20.8   20.8   20.6    59   12.5   0.0   ---  0.00   0.0   ---   20.8   20.4   20.4   27.8  1019.0  0.00   0.0   824    35.44    930     3.5  0.75   4.1   0.000   0.052   27.6    41    0.00   699    1    100.0   30 
20/09/20 12:00p   21.6   21.6   20.8    58   12.9   0.0   ---  0.00   0.0   ---   21.6   21.1   21.1   28.7  1019.0  0.00   0.0   861    37.03   1016     4.1  0.88   4.4   0.000   0.067   27.8    41    0.46   700    1    100.0   30 
20/09/20 12:30p   21.6   21.6   21.2    57   12.7   0.0   ---  0.00   0.0   ---   21.6   21.1   21.1   28.7  1018.6  0.00   0.0   873    37.54   1016     4.1  0.88   4.4   0.000   0.067   27.9    41    0.00   700    1    100.0   30 
20/09/20  1:00p   21.6   21.7   21.4    58   12.9   0.0   ---  0.00   0.0   ---   21.6   21.1   21.1   28.8  1018.3  0.00   0.0   850    36.55    932     3.8  0.81   4.3   0.000   0.067   28.2    40    0.48   702    1    100.0   30 
20/09/20  1:30p   21.7   21.8   21.4    58   13.0   0.0   ---  0.00   0.0   ---   21.7   21.3   21.3   27.2  1017.9  0.00   0.0   591    25.42    879     3.1  0.66   4.4   0.000   0.069   28.3    40    0.00   702    1    100.0   30 
20/09/20  2:00p   21.6   21.7   21.3    59   13.2   0.0   ---  0.00   0.0   ---   21.6   21.2   21.2   26.6  1017.4  0.00   0.0   470    20.21    932     2.6  0.56   3.7   0.000   0.067   28.4    40    0.33   701    1    100.0   30 
20/09/20  2:30p   21.3   21.9   21.2    59   12.9   0.0   ---  0.00   0.0   ---   21.3   20.8   20.8   26.2  1017.2  0.00   0.0   437    18.79    958     2.2  0.47   3.3   0.000   0.061   28.5    40    0.00   700    1    100.0   30 
20/09/20  3:00p   21.1   21.7   21.1    59   12.7   0.0   ---  0.00   0.0   ---   21.1   20.6   20.6   25.2  1017.0  0.00   0.0   344    14.79    821     1.6  0.34   2.7   0.000   0.057   28.6    40    0.25   700    1    100.0   30 
20/09/20  3:30p   21.7   21.7   21.0    58   13.0   0.0   ---  0.00   0.0   ---   21.7   21.3   21.3   26.3  1016.8  0.00   0.0   363    15.61    636     1.2  0.26   1.7   0.000   0.069   28.6    40    0.00   699    1    100.0   30 
20/09/20  4:00p   22.1   22.1   21.5    57   13.2   0.0   ---  0.00   0.0   ---   22.1   21.9   21.9   28.9  1016.8  0.00   0.0   446    19.18    645     1.2  0.26   1.4   0.000   0.079   28.7    39    0.25   699    1    100.0   30 
20/09/20  4:30p   21.5   22.1   21.5    60   13.4   0.0   ---  0.00   0.0   ---   21.5   21.2   21.2   26.8  1017.1  0.00   0.0   320    13.76    396     0.7  0.15   0.9   0.000   0.066   28.8    39    0.00   701    1    100.0   30 
20/09/20  5:00p   20.8   21.5   20.8    62   13.2   0.0   ---  0.00   0.0   ---   20.8   20.5   20.5   23.6  1017.2  0.00   0.0   181     7.78    264     0.1  0.02   0.5   0.000   0.051   28.8    39    0.15   702    1    100.0   30 
20/09/20  5:30p   20.3   20.8   20.3    65   13.5   0.0   ---  0.00   0.0   ---   20.3   20.3   20.3   19.7  1017.2  0.00   0.0    81     3.48    165     0.0  0.00   0.0   0.000   0.041   28.7    39    0.00   699    1    100.0   30 
20/09/20  6:00p   19.8   20.3   19.8    67   13.5   0.0   ---  0.00   0.0   ---   19.8   19.9   19.9   18.6  1017.6  0.00   0.0    16     0.69     23     0.0  0.00   0.0   0.000   0.030   28.6    39    0.03   702    1    100.0   30 
20/09/20  6:30p   19.3   19.8   19.3    68   13.3   0.0   ---  0.00   0.0   ---   19.3   19.4   19.4   17.8  1017.4  0.00   0.0     3     0.13     11     0.0  0.00   0.0   0.000   0.021   28.5    39    0.00   700    1    100.0   30 
20/09/20  7:00p   18.8   19.3   18.8    70   13.2   0.0   ---  0.00   0.0   ---   18.8   18.9   18.9   17.3  1017.6  0.00   0.0     0     0.00      0     0.0  0.00   0.0   0.000   0.009   28.4    39    0.00   699    1    100.0   30 
20/09/20  7:30p   18.8   18.8   18.8    71   13.5   0.0   ---  0.00   0.0   ---   18.8   18.9   18.9   17.3  1017.9  0.00   0.0     0     0.00      0     0.0  0.00   0.0   0.000   0.010   28.2    40    0.00   698    1    100.0   30 
20/09/20  8:00p   18.5   18.8   18.5    72   13.4   0.0   ---  0.00   0.0   ---   18.5   18.6   18.6   17.0  1017.7  0.00   0.0     0     0.00      0     0.0  0.00   0.0   0.000   0.003   28.1    40    0.03   702    1    100.0   30 
20/09/20  8:30p   18.7   18.7   18.4    72   13.6   0.0   ---  0.00   0.0   ---   18.7   18.9   18.9   17.3  1017.3  0.00   0.0     0     0.00      0     0.0  0.00   0.0   0.000   0.008   27.9    40    0.00   702    1    100.0   30 
20/09/20  9:00p   19.0   19.1   18.7    72   13.8   0.0   ---  0.00   0.0   ---   19.0   19.2   19.2   17.6  1017.2  0.00   0.0     0     0.00      0     0.0  0.00   0.0   0.000   0.014   27.8    40    0.03   700    1    100.0   30 
20/09/20  9:30p   19.3   19.3   18.9    71   13.9   0.0   ---  0.00   0.0   ---   19.3   19.5   19.5   17.9  1017.2  0.00   0.0     0     0.00      0     0.0  0.00   0.0   0.000   0.020   27.8    40    0.00   701    1    100.0   30 
20/09/20 10:00p   19.3   19.3   19.2    72   14.1   0.0   ---  0.00   0.0   ---   19.3   19.6   19.6   18.0  1017.3  0.00   0.0     0     0.00      0     0.0  0.00   0.0   0.000   0.020   27.7    40    0.03   702    1    100.0   30 
20/09/20 10:30p   19.1   19.3   19.1    72   13.9   0.0   ---  0.00   0.0   ---   19.1   19.3   19.3   17.8  1017.3  0.00   0.0     0     0.00      0     0.0  0.00   0.0   0.000   0.016   27.6    40    0.00   700    1    100.0   30 
20/09/20 11:00p   19.2   19.3   19.1    72   14.0   0.0   ---  0.00   0.0   ---   19.2   19.4   19.4   17.9  1017.1  0.00   0.0     0     0.00      0     0.0  0.00   0.0   0.000   0.019   27.4    40    0.03   701    1    100.0   30 
20/09/20 11:30p   19.2   19.3   19.2    72   14.0   0.0   ---  0.00   0.0   ---   19.2   19.4   19.4   17.9  1017.4  0.00   0.0     0     0.00      0     0.0  0.00   0.0   0.000   0.019   27.4    40    0.00   699    1    100.0   30 
21/09/20 12:00a   18.9   19.3   18.9    73   13.9   0.0   ---  0.00   0.0   ---   18.9   19.1   19.1   17.6  1017.2  0.00   0.0     0     0.00      0     0.0  0.00   0.0   0.000   0.012   27.3    40    0.03   701    1    100.0   30 
21/09/20 12:30a   19.2   19.2   18.8    71   13.8   0.0   ---  0.00   0.0   ---   19.2   19.4   19.4   17.8  1017.1  0.00   0.0     0     0.00      0     0.0  0.00   0.0   0.000   0.019   27.3    40    0.00   699    1    100.0   30 
21/09/20  1:00a   20.6   20.7   19.3    65   13.7   0.0   ---  0.00   0.0   ---   20.6   20.5   20.5   18.9  1016.8  0.00   0.0     0     0.00      0     0.0  0.00   0.0   0.000   0.046   27.2    41    0.03   702    1    100.0   30 
21/09/20  1:30a   19.9   20.6   19.9    67   13.6   0.0   ---  0.00   0.0   ---   19.9   20.1   20.1   18.5  1016.9  0.00   0.0     0     0.00      0     0.0  0.00   0.0   0.000   0.034   27.2    41    0.00   682    1     99.7   30 
21/09/20  2:00a   19.7   19.9   19.7    68   13.6   0.0   ---  0.00   0.0   ---   19.7   19.8   19.8   18.2  1016.9  0.00   0.0     0     0.00      0     0.0  0.00   0.0   0.000   0.028   27.2    41    0.03   696    1    100.0   30 
21/09/20  2:30a   19.1   19.7   19.0    70   13.5   0.0   ---  0.00   0.0   ---   19.1   19.2   19.2   17.6  1016.1  0.00   0.0     0     0.00      0     0.0  0.00   0.0   0.000   0.015   27.2    41    0.00   700    1    100.0   30 
21/09/20  3:00a   19.3   19.3   19.0    68   13.3   0.0   ---  0.00   0.0   ---   19.3   19.4   19.4   17.8  1016.0  0.00   0.0     0     0.00      0     0.0  0.00   0.0   0.000   0.021   27.1    41    0.03   702    1    100.0   30 
21/09/20  3:30a   19.1   19.4   19.1    68   13.1   0.0   ---  0.00   0.0   ---   19.1   19.2   19.2   17.6  1015.5  0.00   0.0     0     0.00      0     0.0  0.00   0.0   0.000   0.016   27.1    41    0.00   702    1    100.0   30 
21/09/20  4:00a   18.8   19.1   18.8    69   13.0   0.0   ---  0.00   0.0   ---   18.8   18.9   18.9   17.3  1015.6  0.00   0.0     0     0.00      0     0.0  0.00   0.0   0.000   0.010   27.1    41    0.03   702    1    100.0   30 
21/09/20  4:30a   18.9   18.9   18.8    69   13.1   0.0   ---  0.00   0.0   ---   18.9   19.0   19.0   17.4  1016.7  0.00   0.0     0     0.00      0     0.0  0.00   0.0   0.000   0.013   27.0    41    0.00   699    1    100.0   30 
21/09/20  5:00a   18.7   18.9   18.7    71   13.3   0.0   ---  0.00   0.0   ---   18.7   18.8   18.8   17.2  1016.9  0.00   0.0     0     0.00      0     0.0  0.00   0.0   0.000   0.007   27.0    41    0.03   697    1    100.0   30 
21/09/20  5:30a   17.8   18.7   17.8    75   13.3   0.0   ---  0.00   0.0   ---   17.8   17.9   17.9   16.3  1017.6  0.00   0.0     0     0.00      0     0.0  0.00   0.0   0.010   0.000   27.0    41    0.00   700    1    100.0   30 
21/09/20  6:00a   17.3   17.8   17.3    77   13.3   0.0   ---  0.00   0.0   ---   17.3   17.4   17.4   15.8  1017.4  0.00   0.0     0     0.00      0     0.0  0.00   0.0   0.021   0.000   27.0    41    0.03   702    1    100.0   30 
21/09/20  6:30a   17.2   17.3   17.2    77   13.2   0.0   ---  0.00   0.0   ---   17.2   17.3   17.3   15.7  1017.6  0.00   0.0     0     0.00      0     0.0  0.00   0.0   0.023   0.000   26.9    41    0.00   700    1    100.0   30 
21/09/20  7:00a   17.1   17.2   17.1    77   13.0   0.0   ---  0.00   0.0   ---   17.1   17.1   17.1   15.5  1017.6  0.00   0.0     1     0.04      7     0.0  0.00   0.0   0.025   0.000   26.9    41    0.00   700    1    100.0   30 
21/09/20  7:30a   17.1   17.1   17.1    78   13.2   0.0   ---  0.00   0.0   ---   17.1   17.1   17.1   15.8  1017.6  0.00   0.0    23     0.99     51     0.0  0.00   0.0   0.027   0.000   26.9    41    0.00   701    1    100.0   30 
21/09/20  8:00a   17.1   17.1   17.1    78   13.2   0.0   ---  0.00   0.0   ---   17.1   17.2   17.2   17.3  1017.9  0.00   0.0    43     1.85     60     0.0  0.00   0.0   0.025   0.000   26.9    41    0.03   699    1    100.0   30 
21/09/20  8:30a   17.2   17.2   17.1    77   13.1   0.0   ---  0.00   0.0   ---   17.2   17.2   17.2   18.6  1017.5  0.00   0.0   103     4.43    207     0.0  0.00   0.5   0.024   0.000   26.9    41    0.00   699    1    100.0   30 
21/09/20  9:00a   17.4   17.4   17.2    73   12.6   0.0   ---  0.00   0.0   ---   17.4   17.4   17.4   18.6  1017.6  0.00   0.0   109     4.69    163     0.0  0.00   0.5   0.019   0.000   26.9    41    0.05   700    1    100.0   30 
21/09/20  9:30a   17.7   17.7   17.4    64   10.8   0.0   ---  0.00   0.0   ---   17.7   17.3   17.3   17.7  1017.2  0.00   0.0    77     3.31    142     0.0  0.00   0.0   0.014   0.000   26.9    41    0.00   697    1    100.0   30 
21/09/20 10:00a   18.4   18.4   17.7    53    8.7   0.0   ---  0.00   0.0   ---   18.4   17.7   17.7   19.8  1016.7  0.00   0.0   193     8.30    401     0.7  0.15   1.6   0.000   0.002   27.0    41    0.08   700    1    100.0   30 
21/09/20 10:30a   18.1   18.7   18.1    49    7.2   0.0   ---  0.00   0.0   ---   18.1   17.1   17.1   17.8  1017.1  0.00   0.0   115     4.95    283     0.3  0.06   1.1   0.005   0.000   27.0    41    0.00   699    1    100.0   30 
21/09/20 11:00a   17.2   18.1   17.2    58    8.8   0.0   ---  0.00   0.0   ---   17.2   16.5   16.5   16.4  1016.7  0.00   0.0    69     2.97    102     0.0  0.00   0.0   0.024   0.000   27.1    41    0.05   671    1     98.1   30 
21/09/20 11:30a   16.5   17.2   16.5    63    9.4   0.0   ---  0.00   0.0   ---   16.5   16.0   16.0   15.6  1017.3  0.00   0.0    48     2.06     70     0.0  0.00   0.0   0.038   0.000   27.0    41    0.00   698    1    100.0   30 
21/09/20 12:00p   16.7   16.7   16.4    60    8.9   0.0   ---  0.00   0.0   ---   16.7   16.1   16.1   16.4  1017.5  0.00   0.0   102     4.39    149     0.2  0.04   0.7   0.034   0.000   27.0    40    0.05   698    1    100.0   30 
21/09/20 12:30p   17.7   17.7   16.8    60    9.8   0.0   ---  0.00   0.0   ---   17.7   17.2   17.2   18.8  1017.5  0.00   0.0   187     8.04    352     0.9  0.19   1.8   0.014   0.000   27.0    40    0.00   676    1     98.8   30 
21/09/20  1:00p   17.2   17.7   17.1    61    9.6   0.0   ---  0.00   0.0   ---   17.2   16.6   16.6   17.7  1017.3  0.00   0.0   149     6.41    234     0.6  0.13   1.1   0.024   0.000   27.0    40    0.10   700    1    100.0   30 
21/09/20  1:30p   17.4   17.4   16.9    54    8.0   0.0   ---  0.00   0.0   ---   17.4   16.6   16.6   19.5  1017.3  0.00   0.0   276    11.87    900     1.5  0.32   3.8   0.020   0.000   27.0    40    0.00   700    1    100.0   30 
21/09/20  2:00p   18.0   18.0   17.4    48    6.8   0.0   ---  0.00   0.0   ---   18.0   16.9   16.9   22.3  1017.0  0.00   0.0   608    26.15    868     2.8  0.60   3.6   0.007   0.000   27.1    39    0.25   701    1    100.0   30 
21/09/20  2:30p   18.4   18.4   17.9    48    7.2   0.0   ---  0.00   0.0   ---   18.4   17.3   17.3   24.6  1016.4  0.00   0.0   696    29.93    761     2.6  0.56   3.0   0.000   0.001   27.2    39    0.00   678    1     99.1   30 
21/09/20  3:00p   18.4   18.5   18.2    47    6.9   0.0   ---  0.00   0.0   ---   18.4   17.3   17.3   24.3  1016.1  0.00   0.0   608    26.15    647     2.1  0.45   2.3   0.000   0.002   27.3    38    0.36   698    1    100.0   30 
21/09/20  3:30p   18.7   18.9   18.4    47    7.2   0.0   ---  0.00   0.0   ---   18.7   17.7   17.7   24.4  1015.9  0.00   0.0   521    22.41    566     1.5  0.32   1.8   0.000   0.008   27.4    38    0.00   701    1    100.0   30 
21/09/20  4:00p   18.8   18.9   18.7    46    6.9   0.0   ---  0.00   0.0   ---   18.8   17.7   17.7   24.1  1015.6  0.00   0.0   431    18.54    476     1.1  0.24   1.3   0.000   0.009   27.6    37    0.28   700    1    100.0   30 
21/09/20  4:30p   18.7   18.8   18.7    46    6.9   0.0   ---  0.00   0.0   ---   18.7   17.6   17.6   23.1  1015.8  0.00   0.0   329    14.15    378     0.7  0.15   0.9   0.000   0.008   27.6    37    0.00   700    1    100.0   30 
21/09/20  5:00p   18.3   18.7   18.3    47    6.8   0.0   ---  0.00   0.0   ---   18.3   17.2   17.2   20.9  1016.0  0.00   0.0   220     9.46    276     0.1  0.02   0.5   0.000   0.000   27.6    36    0.15   701    1    100.0   30 
21/09/20  5:30p   17.7   18.3   17.7    49    6.9   0.0   ---  0.00   0.0   ---   17.7   16.7   16.7   15.9  1016.3  0.00   0.0    97     4.17    158     0.0  0.00   0.0   0.013   0.000   27.6    36    0.00   701    1    100.0   30 
21/09/20  6:00p   17.0   17.7   17.0    51    6.8   0.0   ---  0.00   0.0   ---   17.0   16.0   16.0   14.3  1016.5  0.00   0.0    22     0.95     32     0.0  0.00   0.0   0.028   0.000   27.4    36    0.05   699    1    100.0   30 
21/09/20  6:30p   15.9   17.0   15.9    55    6.9   0.0   ---  0.00   0.0   ---   15.9   15.1   15.1   13.2  1016.4  0.00   0.0     3     0.13     11     0.0  0.00   0.0   0.050   0.000   27.3    36    0.00   699    1    100.0   30 
21/09/20  7:00p   14.9   15.9   14.9    59    6.9   0.0   ---  0.00   0.0   ---   14.9   14.1   14.1   12.2  1016.5  0.00   0.0     0     0.00      0     0.0  0.00   0.0   0.072   0.000   27.1    36    0.00   697    1    100.0   30 
21/09/20  7:30p   14.1   14.9   14.1    61    6.7   0.0   ---  0.00   0.0   ---   14.1   13.4   13.4   11.5  1016.8  0.00   0.0     0     0.00      0     0.0  0.00   0.0   0.088   0.000   26.9    36    0.00   700    1    100.0   30 
21/09/20  8:00p   13.3   14.1   13.3    64    6.7   0.0   ---  0.00   0.0   ---   13.3   12.7   12.7   10.8  1016.9  0.00   0.0     0     0.00      0     0.0  0.00   0.0   0.104   0.000   26.7    36    0.03   699    1    100.0   30 
21/09/20  8:30p   12.6   13.3   12.6    67    6.6   0.0   ---  0.00   0.0   ---   12.6   12.1   12.1   10.1  1017.2  0.00   0.0     0     0.00      0     0.0  0.00   0.0   0.120   0.000   26.5    36    0.00   698    1    100.0   30 
21/09/20  9:00p   12.0   12.6   12.0    69    6.5   0.0   ---  0.00   0.0   ---   12.0   11.6   11.6    9.6  1017.4  0.00   0.0     0     0.00      0     0.0  0.00   0.0   0.132   0.000   26.4    36    0.03   696    1    100.0   30 
21/09/20  9:30p   11.6   12.0   11.6    71    6.5   0.0   ---  0.00   0.0   ---   11.6   11.2   11.2    9.3  1017.5  0.00   0.0     0     0.00      0     0.0  0.00   0.0   0.141   0.000   26.2    36    0.00   698    1    100.0   30 
21/09/20 10:00p   11.1   11.6   11.1    72    6.2   0.0   ---  0.00   0.0   ---   11.1   10.8   10.8    8.8  1017.7  0.00   0.0     0     0.00      0     0.0  0.00   0.0   0.152   0.000   26.0    36    0.03   693    1    100.0   30 
21/09/20 10:30p   10.2   11.1   10.2    74    5.7   0.0   ---  0.00   0.0   ---   10.2   10.0   10.0    8.0  1018.0  0.00   0.0     0     0.00      0     0.0  0.00   0.0   0.170   0.000   25.8    36    0.00   701    1    100.0   30 
21/09/20 11:00p    9.3   10.2    9.3    77    5.5   0.0   ---  0.00   0.0   ---    9.3    9.2    9.2    7.2  1018.0  0.00   0.0     0     0.00      0     0.0  0.00   0.0   0.188   0.000   25.6    35    0.03   699    1    100.0   30 
21/09/20 11:30p    8.7    9.3    8.7    81    5.6   0.0   ---  0.00   0.0   ---    8.7    8.6    8.6    6.6  1018.2  0.00   0.0     0     0.00      0     0.0  0.00   0.0   0.201   0.000   25.4    35    0.00   695    1    100.0   30 
22/09/20 12:00a    8.6    8.8    8.6    81    5.5   0.0   ---  0.00   0.0   ---    8.6    8.5    8.5    6.5  1018.2  0.00   0.0     0     0.00      0     0.0  0.00   0.0   0.204   0.000   25.2    35    0.03   697    1    100.0   30 
22/09/20 12:30a    8.4    8.6    8.4    84    5.9   0.0   ---  0.00   0.0   ---    8.4    8.4    8.4    6.4  1018.1  0.00   0.0     0     0.00      0     0.0  0.00   0.0   0.206   0.000   25.0    35    0.00   699    1    100.0   30 
22/09/20  1:00a   11.0   11.0    8.4    75    6.7   0.0   ---  0.00   0.0   ---   11.0   10.8   10.8    8.8  1018.1  0.00   0.0     0     0.00      0     0.0  0.00   0.0   0.153   0.000   24.8    35    0.00   698    1    100.0   30 
22/09/20  1:30a   12.2   12.2   11.0    67    6.3   0.0   ---  0.00   0.0   ---   12.2   11.7   11.7    9.8  1017.8  0.00   0.0     0     0.00      0     0.0  0.00   0.0   0.127   0.000   24.7    35    0.00   699    1    100.0   30 
22/09/20  2:00a   12.5   12.5   12.2    65    6.1   0.0   ---  0.00   0.0   ---   12.5   11.9   11.9    9.9  1017.6  0.00   0.0     0     0.00      0     0.0  0.00   0.0   0.122   0.000   24.7    35    0.03   698    1    100.0   30 
22/09/20  2:30a   14.5   14.5   12.5    56    5.8   0.0   ---  0.00   0.0   ---   14.5   13.7   13.7   11.7  1017.3  0.00   0.0     0     0.00      0     0.0  0.00   0.0   0.080   0.000   24.7    35    0.00   700    1    100.0   30 
22/09/20  3:00a   14.6   14.7   14.5    57    6.1   0.0   ---  0.00   0.0   ---   14.6   13.7   13.7   11.8  1017.3  0.00   0.0     0     0.00      0     0.0  0.00   0.0   0.079   0.000   24.7    35    0.03   697    1    100.0   30 
22/09/20  3:30a   14.6   14.7   14.6    58    6.4   0.0   ---  0.00   0.0   ---   14.6   13.8   13.8   11.8  1017.3  0.00   0.0     0     0.00      0     0.0  0.00   0.0   0.079   0.000   24.7    35    0.00   698    1    100.0   30 
22/09/20  4:00a   13.5   14.6   13.5    62    6.4   0.0   ---  0.00   0.0   ---   13.5   12.8   12.8   10.9  1017.4  0.00   0.0     0     0.00      0     0.0  0.00   0.0   0.101   0.000   24.7    35    0.03   702    1    100.0   30 
22/09/20  4:30a   13.1   13.5   13.1    64    6.4   0.0   ---  0.00   0.0   ---   13.1   12.4   12.4   10.5  1017.6  0.00   0.0     0     0.00      0     0.0  0.00   0.0   0.110   0.000   24.7    35    0.00   699    1    100.0   30 
22/09/20  5:00a   12.7   13.1   12.7    66    6.5   0.0   ---  0.00   0.0   ---   12.7   12.1   12.1   10.2  1017.9  0.00   0.0     0     0.00      0     0.0  0.00   0.0   0.118   0.000   24.7    35    0.03   700    1    100.0   30 
22/09/20  5:30a   12.5   12.7   12.4    68    6.8   0.0   ---  0.00   0.0   ---   12.5   12.1   12.1   10.1  1018.1  0.00   0.0     0     0.00      0     0.0  0.00   0.0   0.122   0.000   24.6    35    0.00   699    1    100.0   30 
22/09/20  6:00a   12.2   12.5   12.2    70    6.9   0.0   ---  0.00   0.0   ---   12.2   11.8   11.8    9.9  1018.4  0.00   0.0     0     0.00      0     0.0  0.00   0.0   0.127   0.000   24.6    35    0.00   702    1    100.0   30 
22/09/20  6:30a   12.1   12.2   12.0    72    7.2   0.0   ---  0.00   0.0   ---   12.1   11.7   11.7    9.9  1018.6  0.00   0.0    10     0.43     19     0.0  0.00   0.0   0.131   0.000   24.5    35    0.00   701    1    100.0   30 
22/09/20  7:00a   12.8   12.8   12.1    70    7.4   0.0   ---  0.00   0.0   ---   12.8   12.3   12.3   11.2  1019.0  0.00   0.0    64     2.75    109     0.0  0.00   0.0   0.116   0.000   24.5    35    0.03   696    1    100.0   30 
22/09/20  7:30a   13.3   13.3   12.8    68    7.5   0.0   ---  0.00   0.0   ---   13.3   12.8   12.8   12.8  1019.3  0.00   0.0   161     6.92    216     0.0  0.00   0.0   0.104   0.000   24.5    35    0.00   689    1    100.0   30 
22/09/20  8:00a   14.0   14.0   13.3    65    7.5   0.0   ---  0.00   0.0   ---   14.0   13.4   13.4   17.8  1019.4  0.00   0.0   271    11.65    339     0.1  0.02   0.5   0.090   0.000   24.5    35    0.10   701    1    100.0   30 
22/09/20  8:30a   15.0   15.1   14.0    61    7.5   0.0   ---  0.00   0.0   ---   15.0   14.3   14.3   21.9  1019.5  0.00   0.0   468    20.13    575     0.7  0.15   0.9   0.069   0.000   24.7    35    0.00   700    1    100.0   30 
22/09/20  9:00a   14.7   15.0   14.6    63    7.7   0.0   ---  0.00   0.0   ---   14.7   14.1   14.1   20.4  1019.4  0.00   0.0   473    20.34    519     1.1  0.24   1.3   0.075   0.000   23.8    36    0.25   700    1    100.0   30 
22/09/20  9:30a   15.2   15.2   14.7    64    8.4   0.0   ---  0.00   0.0   ---   15.2   14.6   14.6   21.6  1019.3  0.00   0.0   579    24.90    703     1.5  0.32   1.8   0.066   0.000   23.8    38    0.00   703    1    100.0   30 
22/09/20 10:00a   15.2   15.3   15.1    62    8.0   0.0   ---  0.00   0.0   ---   15.2   14.6   14.6   21.0  1019.1  0.00   0.0   617    26.53    819     1.9  0.41   2.5   0.065   0.000   24.4    37    0.30   701    1    100.0   30 
22/09/20 10:30a   15.8   15.8   14.7    61    8.3   0.0   ---  0.00   0.0   ---   15.8   15.2   15.2   18.9  1018.8  0.00   0.0   324    13.93    661     1.7  0.36   3.0   0.052   0.000   24.9    37    0.00   661    1     96.6   30 
22/09/20 11:00a   15.9   16.3   15.8    59    7.9   0.0   ---  0.00   0.0   ---   15.9   15.2   15.2   19.8  1018.7  0.00   0.0   421    18.11   1095     2.0  0.43   3.4   0.050   0.000   25.2    37    0.25   702    1    100.0   30 
22/09/20 11:30a   16.4   16.4   15.9    56    7.6   0.0   ---  0.00   0.0   ---   16.4   15.6   15.6   21.0  1018.5  0.00   0.0   534    22.96   1178     2.6  0.56   4.0   0.039   0.000   25.5    37    0.00   701    1    100.0   30 
22/09/20 12:00p   17.2   17.2   16.4    54    7.8   0.0   ---  0.00   0.0   ---   17.2   16.4   16.4   22.2  1018.3  0.00   0.0   726    31.22   1014     3.2  0.69   4.2   0.023   0.000   25.7    36    0.36   701    1    100.0   30 
22/09/20 12:30p   16.7   17.3   16.6    57    8.2   0.0   ---  0.00   0.0   ---   16.7   15.9   15.9   20.6  1018.3  0.00   0.0   444    19.09    904     2.3  0.49   4.1   0.034   0.000   26.0    36    0.00   701    1    100.0   30 
22/09/20  1:00p   16.8   17.1   16.7    56    8.0   0.0   ---  0.00   0.0   ---   16.8   16.1   16.1   19.9  1018.2  0.00   0.0   364    15.65    935     2.2  0.47   4.1   0.031   0.000   26.2    36    0.28   703    1    100.0   30 
22/09/20  1:30p   17.6   17.6   16.8    54    8.2   0.0   ---  0.00   0.0   ---   17.6   16.8   16.8   24.0  1017.7  0.00   0.0   809    34.79    969     3.3  0.71   3.8   0.015   0.000   26.3    35    0.00   702    1    100.0   30 
22/09/20  2:00p   18.0   18.0   17.7    52    8.0   0.0   ---  0.00   0.0   ---   18.0   17.1   17.1   21.6  1017.6  0.00   0.0   399    17.16    944     2.5  0.54   3.7   0.007   0.000   26.5    35    0.38   702    1    100.0   30 
22/09/20  2:30p   17.3   18.3   17.3    55    8.2   0.0   ---  0.00   0.0   ---   17.3   16.6   16.6   21.1  1017.5  0.00   0.0   386    16.60    795     1.6  0.34   3.0   0.021   0.000   26.7    35    0.00   700    1    100.0   30 
22/09/20  3:00p   17.8   17.8   17.3    53    8.1   0.0   ---  0.00   0.0   ---   17.8   16.9   16.9   20.6  1017.7  0.00   0.0   287    12.34    682     1.1  0.24   2.1   0.012   0.000   26.8    35    0.20   700    1    100.0   30 
22/09/20  3:30p   17.3   17.8   17.3    52    7.4   0.0   ---  0.00   0.0   ---   17.3   16.4   16.4   24.1  1018.2  0.00   0.0   581    24.99    731     1.5  0.32   2.0   0.021   0.000   26.9    34    0.00   702    1    100.0   30 
22/09/20  4:00p   16.5   17.3   15.7    58    8.2   0.0   ---  0.00   0.0   ---   16.5   15.8   15.8   20.5  1018.4  0.00   0.0   343    14.75    624     0.8  0.17   1.1   0.038   0.000   27.0    34    0.25   700    1    100.0   30 
22/09/20  4:30p   16.5   16.6   16.3    57    7.9   0.0   ---  0.00   0.0   ---   16.5   15.7   15.7   17.9  1018.7  0.00   0.0   148     6.36    446     0.1  0.02   0.7   0.038   0.000   27.0    34    0.00   700    1    100.0   30 
22/09/20  5:00p   12.6   16.5   12.6    74    8.1   0.0   ---  0.00   0.0   ---   12.6   12.3   12.3   12.3  1020.3  0.51   3.3    46     1.98    135     0.0  0.00   0.0   0.119   0.000   27.0    34    0.08   696    1    100.0   30 
22/09/20  5:30p   13.3   13.3   12.5    72    8.3   0.0   ---  0.00   0.0   ---   13.3   12.9   12.9   12.3  1020.7  0.00   0.0    75     3.23    123     0.0  0.00   0.0   0.105   0.000   26.8    34    0.00   694    1    100.0   30 
22/09/20  6:00p   13.8   13.8   13.3    68    8.0   0.0   ---  0.00   0.0   ---   13.8   13.3   13.3   12.2  1021.2  0.00   0.0    37     1.59     98     0.0  0.00   0.0   0.094   0.000   26.7    34    0.03   700    1    100.0   30 
22/09/20  6:30p   13.5   13.8   13.5    68    7.7   0.0   ---  0.00   0.0   ---   13.5   13.0   13.0   11.4  1021.8  0.00   0.0     3     0.13     11     0.0  0.00   0.0   0.101   0.000   26.6    34    0.00   694    1    100.0   30 
22/09/20  7:00p   13.3   13.5   13.3    69    7.7   0.0   ---  0.00   0.0   ---   13.3   12.8   12.8   11.2  1022.3  0.00   0.0     0     0.00      0     0.0  0.00   0.0   0.105   0.000   26.4    34    0.00   699    1    100.0   30 
22/09/20  7:30p   12.6   13.3   12.6    71    7.5   0.0   ---  0.00   0.0   ---   12.6   12.2   12.2   10.6  1022.8  0.00   0.0     0     0.00      0     0.0  0.00   0.0   0.119   0.000   26.3    34    0.00   698    1    100.0   30 
22/09/20  8:00p   11.5   12.6   11.5    77    7.6   0.0   ---  0.00   0.0   ---   11.5   11.3   11.3    9.7  1023.2  0.00   0.0     0     0.00      0     0.0  0.00   0.0   0.142   0.000   26.1    34    0.03   702    1    100.0   30 
22/09/20  8:30p   10.8   11.5   10.8    80    7.5   0.0   ---  0.00   0.0   ---   10.8   10.8   10.8    9.2  1023.5  0.00   0.0     0     0.00      0     0.0  0.00   0.0   0.156   0.000   25.9    34    0.00   698    1    100.0   30 
22/09/20  9:00p    9.8   10.8    9.8    83    7.0   0.0   ---  0.00   0.0   ---    9.8    9.8    9.8    8.2  1023.8  0.00   0.0     0     0.00      0     0.0  0.00   0.0   0.178   0.000   25.7    35    0.03   700    1    100.0   30 
22/09/20  9:30p    9.2    9.8    9.2    86    6.9   0.0   ---  0.00   0.0   ---    9.2    9.2    9.2    7.6  1023.9  0.00   0.0     0     0.00      0     0.0  0.00   0.0   0.191   0.000   25.6    35    0.00   699    1    100.0   30 
22/09/20 10:00p    9.4    9.4    9.0    88    7.5   0.0   ---  0.00   0.0   ---    9.4    9.5    9.5    7.9  1023.8  0.00   0.0     0     0.00      0     0.0  0.00   0.0   0.186   0.000   25.4    35    0.00   701    1    100.0   30 
22/09/20 10:30p    9.2    9.4    9.2    87    7.1   0.0   ---  0.00   0.0   ---    9.2    9.2    9.2    7.6  1023.7  0.00   0.0     0     0.00      0     0.0  0.00   0.0   0.191   0.000   25.2    35    0.00   697    1    100.0   30 
22/09/20 11:00p    8.6    9.2    8.6    87    6.6   0.0   ---  0.00   0.0   ---    8.6    8.7    8.7    7.1  1023.8  0.00   0.0     0     0.00      0     0.0  0.00   0.0   0.203   0.000   25.1    35    0.00   670    1     98.0   30 
22/09/20 11:30p   10.1   10.1    8.6    79    6.6   0.0   ---  0.00   0.0   ---   10.1   10.0   10.0    8.4  1023.4  0.00   0.0     0     0.00      0     0.0  0.00   0.0   0.172   0.000   24.9    35    0.00   700    1    100.0   30 
23/09/20 12:00a   11.1   11.1   10.1    72    6.2   0.0   ---  0.00   0.0   ---   11.1   10.8   10.8    9.2  1023.6  0.00   0.0     0     0.00      0     0.0  0.00   0.0   0.152   0.000   24.7    35    0.03   679    1     99.3   30 
23/09/20 12:30a   11.2   11.2   11.1    72    6.3   0.0   ---  0.00   0.0   ---   11.2   10.9   10.9    9.3  1023.9  0.00   0.0     0     0.00      0     0.0  0.00   0.0   0.149   0.000   24.6    35    0.00   694    1    100.0   30 
23/09/20  1:00a   11.1   11.2   11.1    72    6.3   0.0   ---  0.00   0.0   ---   11.1   10.8   10.8    9.2  1023.8  0.00   0.0     0     0.00      0     0.0  0.00   0.0   0.150   0.000   24.5    35    0.03   673    1     98.4   30 
23/09/20  1:30a   10.8   11.1   10.8    73    6.2   0.0   ---  0.00   0.0   ---   10.8   10.6   10.6    9.0  1023.9  0.00   0.0     0     0.00      0     0.0  0.00   0.0   0.156   0.000   24.4    35    0.00   701    1    100.0   30 
23/09/20  2:00a   10.7   10.9   10.7    74    6.3   0.0   ---  0.00   0.0   ---   10.7   10.5   10.5    8.9  1023.9  0.00   0.0     0     0.00      0     0.0  0.00   0.0   0.159   0.000   24.3    35    0.03   701    1    100.0   30 
23/09/20  2:30a   10.8   10.8   10.7    75    6.6   0.0   ---  0.00   0.0   ---   10.8   10.6   10.6    9.0  1023.9  0.00   0.0     0     0.00      0     0.0  0.00   0.0   0.156   0.000   24.3    35    0.00   700    1    100.0   30 
23/09/20  3:00a   11.1   11.1   10.8    74    6.6   0.0   ---  0.00   0.0   ---   11.1   10.8   10.8    9.2  1023.9  0.00   0.0     0     0.00      0     0.0  0.00   0.0   0.152   0.000   24.3    35    0.03   702    1    100.0   30 
23/09/20  3:30a   11.0   11.1   11.0    74    6.5   0.0   ---  0.00   0.0   ---   11.0   10.8   10.8    9.2  1023.8  0.00   0.0     0     0.00      0     0.0  0.00   0.0   0.153   0.000   24.2    35    0.00   700    1    100.0   30 
23/09/20  4:00a   10.8   11.0   10.8    75    6.5   0.0   ---  0.00   0.0   ---   10.8   10.6   10.6    9.0  1023.7  0.00   0.0     0     0.00      0     0.0  0.00   0.0   0.157   0.000   24.2    35    0.03   700    1    100.0   30 
23/09/20  4:30a   10.3   10.8   10.3    76    6.3   0.0   ---  0.00   0.0   ---   10.3   10.2   10.2    8.6  1023.6  0.00   0.0     0     0.00      0     0.0  0.00   0.0   0.167   0.000   24.2    35    0.00   702    1    100.0   30 
23/09/20  5:00a    9.9   10.3    9.9    78    6.3   0.0   ---  0.00   0.0   ---    9.9    9.9    9.9    8.3  1023.7  0.00   0.0     0     0.00      0     0.0  0.00   0.0   0.175   0.000   24.2    35    0.03   700    1    100.0   30 
23/09/20  5:30a    9.7    9.9    9.7    79    6.3   0.0   ---  0.00   0.0   ---    9.7    9.7    9.7    8.1  1023.9  0.00   0.0     0     0.00      0     0.0  0.00   0.0   0.179   0.000   24.1    35    0.00   679    1     99.3   30 
23/09/20  6:00a    9.7    9.7    9.6    79    6.2   0.0   ---  0.00   0.0   ---    9.7    9.6    9.6    8.0  1024.3  0.00   0.0     0     0.00      0     0.0  0.00   0.0   0.181   0.000   24.1    35    0.00   701    1    100.0   30 
23/09/20  6:30a    9.7    9.7    9.6    79    6.3   0.0   ---  0.00   0.0   ---    9.7    9.7    9.7    8.2  1024.4  0.00   0.0    16     0.69     32     0.0  0.00   0.0   0.179   0.000   24.0    35    0.00   700    1    100.0   30 
23/09/20  7:00a   10.5   10.5    9.7    77    6.6   0.0   ---  0.00   0.0   ---   10.5   10.4   10.4    9.6  1024.7  0.00   0.0    66     2.84    137     0.0  0.00   0.0   0.163   0.000   24.0    35    0.03   700    1    100.0   30 
23/09/20  7:30a   11.3   11.3   10.5    75    7.1   0.0   ---  0.00   0.0   ---   11.3   11.1   11.1   11.4  1024.9  0.00   0.0   145     6.24    320     0.0  0.00   0.0   0.146   0.000   24.0    35    0.00   701    1    100.0   30 
23/09/20  8:00a   12.1   12.1   11.4    72    7.2   0.0   ---  0.00   0.0   ---   12.1   11.8   11.8   15.8  1025.1  0.00   0.0   259    11.14    346     0.0  0.00   0.5   0.130   0.000   24.0    35    0.10   702    1    100.0   30 
23/09/20  8:30a   12.7   12.8   12.1    69    7.1   0.0   ---  0.00   0.0   ---   12.7   12.2   12.2   16.3  1025.1  0.00   0.0   297    12.77    485     0.4  0.09   0.7   0.118   0.000   24.0    35    0.00   700    1    100.0   30 
23/09/20  9:00a   12.6   12.8   12.6    69    7.1   0.0   ---  0.00   0.0   ---   12.6   12.2   12.2   13.8  1025.2  0.00   0.0   141     6.06    221     0.0  0.00   0.5   0.119   0.000   23.2    35    0.10   700    1    100.0   30 
23/09/20  9:30a   13.2   13.2   12.6    67    7.2   0.0   ---  0.00   0.0   ---   13.2   12.7   12.7   15.3  1025.2  0.00   0.0   215     9.25    250     0.6  0.13   0.8   0.108   0.000   22.9    36    0.00   700    1    100.0   30 
23/09/20 10:00a   13.4   13.5   13.0    66    7.2   0.0   ---  0.00   0.0   ---   13.4   12.9   12.9   15.6  1025.3  0.00   0.0   237    10.19    448     0.9  0.19   1.7   0.102   0.000   22.8    37    0.13   701    1    100.0   30 
23/09/20 10:30a   13.2   14.1   13.1    71    8.0   0.0   ---  0.00   0.0   ---   13.2   12.7   12.7   16.4  1025.5  0.00   0.0   322    13.85    643     1.4  0.30   2.5   0.108   0.000   22.9    37    0.00   700    1    100.0   30 
23/09/20 11:00a   14.8   14.8   13.2    65    8.3   0.0   ---  0.00   0.0   ---   14.8   14.2   14.2   20.3  1025.2  0.00   0.0   698    30.02    981     2.7  0.58   3.6   0.074   0.000   23.1    37    0.28   700    1    100.0   30 
23/09/20 11:30a   12.8   14.8   12.8    78    9.1   0.0   ---  0.00   0.0   ---   12.8   12.6   12.6   14.2  1025.2  0.00   0.0   178     7.65    288     1.4  0.30   3.5   0.115   0.000   23.3    37    0.00   699    1    100.0   30 
23/09/20 12:00p   14.7   14.7   12.8    66    8.4   0.0   ---  0.00   0.0   ---   14.7   14.1   14.1   20.9  1024.8  0.00   0.0   827    35.57   1042     3.3  0.71   4.1   0.076   0.000   23.4    37    0.25   698    1    100.0   30 
23/09/20 12:30p   15.0   15.7   14.7    66    8.7   0.0   ---  0.00   0.0   ---   15.0   14.5   14.5   19.1  1024.4  0.00   0.0   435    18.71   1100     2.3  0.49   4.2   0.069   0.000   23.6    37    0.00   703    1    100.0   30 
23/09/20  1:00p   13.5   15.4   13.5    76    9.4   0.0   ---  0.00   0.0   ---   13.5   13.2   13.2   15.7  1024.6  0.25   0.0   252    10.84    664     1.4  0.30   3.4   0.101   0.000   23.8    37    0.20   699    1    100.0   30 
23/09/20  1:30p   13.7   13.8   13.1    76    9.5   0.0   ---  0.00   0.0   ---   13.7   13.4   13.4   18.7  1024.4  0.00   0.0   509    21.89    932     2.1  0.45   3.4   0.097   0.000   23.9    37    0.00   702    1    100.0   30 
23/09/20  2:00p   13.2   13.9   13.2    82   10.2   0.0   ---  0.00   0.0   ---   13.2   13.1   13.1   14.7  1024.3  0.51   4.1   168     7.22    320     0.7  0.15   1.7   0.106   0.000   23.9    38    0.18   700    1    100.0   30 
23/09/20  2:30p   14.2   14.3   13.1    71    9.0   0.0   ---  0.00   0.0   ---   14.2   13.8   13.8   17.5  1024.4  0.00   0.0   311    13.37    986     1.3  0.28   2.7   0.087   0.000   23.8    38    0.00   698    1    100.0   30 
23/09/20  3:00p   13.5   14.9   13.4    75    9.2   0.0   ---  0.00   0.0   ---   13.5   13.2   13.2   16.9  1024.5  0.00   0.0   297    12.77    991     1.1  0.24   2.3   0.101   0.000   23.6    38    0.18   699    1    100.0   30 
23/09/20  3:30p   13.7   13.7   13.5    72    8.7   0.0   ---  0.00   0.0   ---   13.7   13.3   13.3   15.2  1024.5  0.00   0.0   161     6.92    216     0.2  0.04   1.3   0.097   0.000   23.6    38    0.00   700    1    100.0   30 
23/09/20  4:00p   13.8   14.0   13.7    69    8.2   0.0   ---  0.00   0.0   ---   13.8   13.4   13.4   15.6  1024.7  0.00   0.0   161     6.92    283     0.3  0.06   1.1   0.094   0.000   23.7    38    0.10   701    1    100.0   30 
23/09/20  4:30p   13.1   14.0   13.1    68    7.3   0.0   ---  0.00   0.0   ---   13.1   12.6   12.6   14.4  1025.0  0.00   0.0   129     5.55    534     0.1  0.02   0.7   0.109   0.000   24.4    38    0.00   696    1    100.0   30 
23/09/20  5:00p   13.1   13.3   13.1    69    7.5   0.0   ---  0.00   0.0   ---   13.1   12.6   12.6   13.5  1025.3  0.00   0.0    86     3.70    163     0.0  0.00   0.0   0.110   0.000   24.9    37    0.08   698    1    100.0   30 
23/09/20  5:30p   12.7   13.1   12.7    70    7.4   0.0   ---  0.00   0.0   ---   12.7   12.3   12.3   11.1  1025.7  0.00   0.0    45     1.94     86     0.0  0.00   0.0   0.117   0.000   25.2    37    0.00   700    1    100.0   30 
23/09/20  6:00p   12.4   12.7   12.4    64    5.8   0.0   ---  0.00   0.0   ---   12.4   11.8   11.8   10.3  1026.1  0.00   0.0    21     0.90     32     0.0  0.00   0.0   0.124   0.000   25.2    36    0.03   700    1    100.0   30 
23/09/20  6:30p   11.8   12.4   11.8    65    5.4   0.0   ---  0.00   0.0   ---   11.8   11.3   11.3    9.5  1026.6  0.00   0.0     2     0.09      9     0.0  0.00   0.0   0.137   0.000   25.2    36    0.00   699    1    100.0   30 
23/09/20  7:00p   11.4   11.8   11.4    69    5.9   0.0   ---  0.00   0.0   ---   11.4   11.0   11.0    9.2  1027.2  0.00   0.0     0     0.00      0     0.0  0.00   0.0   0.145   0.000   25.2    36    0.00   696    1    100.0   30 
23/09/20  7:30p   10.9   11.4   10.9    70    5.6   0.0   ---  0.00   0.0   ---   10.9   10.6   10.6    8.8  1027.6  0.00   0.0     0     0.00      0     0.0  0.00   0.0   0.155   0.000   25.1    35    0.00   700    1    100.0   30 
23/09/20  8:00p   10.6   10.9   10.6    71    5.5   0.0   ---  0.00   0.0   ---   10.6   10.3   10.3    8.4  1027.8  0.00   0.0     0     0.00      0     0.0  0.00   0.0   0.162   0.000   25.0    35    0.03   699    1    100.0   30 
23/09/20  8:30p   10.4   10.6   10.4    73    5.8   0.0   ---  0.00   0.0   ---   10.4   10.2   10.2    8.4  1028.1  0.00   0.0     0     0.00      0     0.0  0.00   0.0   0.166   0.000   24.9    35    0.00   703    1    100.0   30 
23/09/20  9:00p   10.2   10.4   10.2    76    6.1   0.0   ---  0.00   0.0   ---   10.2   10.1   10.1    8.3  1028.4  0.00   0.0     0     0.00      0     0.0  0.00   0.0   0.170   0.000   24.8    35    0.03   698    1    100.0   30 
23/09/20  9:30p   10.1   10.2   10.1    76    6.0   0.0   ---  0.00   0.0   ---   10.1    9.9    9.9    8.2  1028.6  0.00   0.0     0     0.00      0     0.0  0.00   0.0   0.172   0.000   24.8    35    0.00   700    1    100.0   30 
23/09/20 10:00p   10.0   10.1    9.9    76    6.0   0.0   ---  0.00   0.0   ---   10.0    9.9    9.9    8.1  1028.4  0.00   0.0     0     0.00      0     0.0  0.00   0.0   0.174   0.000   24.7    35    0.03   698    1    100.0   30